<?xml version="1.0" encoding="UTF-8" standalone="no" ?>
<gpx xmlns="http://www.topografix.com/GPX/1/1" xmlns:xsi="http://www.w3.org/2001/XMLSchema-instance" xsi:schemaLocation="http://www.topografix.com/GPX/1/1 http://www.topografix.com/GPX/1/1/gpx.xsd" version="1.1" creator="VisuGPX - https://www.visugpx.com">
  <metadata>
    <name>Tête Pelouse</name>
    <desc><![CDATA[grp_trc:]]></desc>
  </metadata>
  <trk>
    <name><![CDATA[Tête Pelouse_1]]></name>
    <trkseg>
      <trkpt lat="45.92262" lon="6.48397">
        <ele>1435</ele>
        <time>2024-02-10T09:17:02Z</time>
      </trkpt>
      <trkpt lat="45.92258" lon="6.48399">
        <ele>1444</ele>
        <time>2024-02-10T09:17:14Z</time>
      </trkpt>
      <trkpt lat="45.92255" lon="6.484">
        <ele>1445</ele>
        <time>2024-02-10T09:17:21Z</time>
      </trkpt>
      <trkpt lat="45.92245" lon="6.48406">
        <ele>1451</ele>
        <time>2024-02-10T09:17:31Z</time>
      </trkpt>
      <trkpt lat="45.92237" lon="6.48406">
        <ele>1452</ele>
        <time>2024-02-10T09:17:37Z</time>
      </trkpt>
      <trkpt lat="45.9223" lon="6.48412">
        <ele>1453</ele>
        <time>2024-02-10T09:17:45Z</time>
      </trkpt>
      <trkpt lat="45.92226" lon="6.48414">
        <ele>1453</ele>
        <time>2024-02-10T09:17:49Z</time>
      </trkpt>
      <trkpt lat="45.92223" lon="6.48419">
        <ele>1455</ele>
        <time>2024-02-10T09:17:54Z</time>
      </trkpt>
      <trkpt lat="45.92221" lon="6.48424">
        <ele>1455</ele>
        <time>2024-02-10T09:17:59Z</time>
      </trkpt>
      <trkpt lat="45.92219" lon="6.48429">
        <ele>1455</ele>
        <time>2024-02-10T09:18:04Z</time>
      </trkpt>
      <trkpt lat="45.92199" lon="6.48446">
        <ele>1457</ele>
        <time>2024-02-10T09:18:35Z</time>
      </trkpt>
      <trkpt lat="45.92188" lon="6.48454">
        <ele>1459</ele>
        <time>2024-02-10T09:18:51Z</time>
      </trkpt>
      <trkpt lat="45.92186" lon="6.48459">
        <ele>1459</ele>
        <time>2024-02-10T09:18:57Z</time>
      </trkpt>
      <trkpt lat="45.92182" lon="6.48462">
        <ele>1461</ele>
        <time>2024-02-10T09:19:02Z</time>
      </trkpt>
      <trkpt lat="45.92177" lon="6.4847">
        <ele>1463</ele>
        <time>2024-02-10T09:19:13Z</time>
      </trkpt>
      <trkpt lat="45.92174" lon="6.48475">
        <ele>1464</ele>
        <time>2024-02-10T09:19:18Z</time>
      </trkpt>
      <trkpt lat="45.92172" lon="6.48478">
        <ele>1464</ele>
        <time>2024-02-10T09:19:23Z</time>
      </trkpt>
      <trkpt lat="45.92169" lon="6.48482">
        <ele>1464</ele>
        <time>2024-02-10T09:19:29Z</time>
      </trkpt>
      <trkpt lat="45.92166" lon="6.48485">
        <ele>1464</ele>
        <time>2024-02-10T09:19:34Z</time>
      </trkpt>
      <trkpt lat="45.92162" lon="6.48488">
        <ele>1465</ele>
        <time>2024-02-10T09:19:38Z</time>
      </trkpt>
      <trkpt lat="45.9216" lon="6.48492">
        <ele>1465</ele>
        <time>2024-02-10T09:19:43Z</time>
      </trkpt>
      <trkpt lat="45.92151" lon="6.48502">
        <ele>1468</ele>
        <time>2024-02-10T09:19:58Z</time>
      </trkpt>
      <trkpt lat="45.92145" lon="6.48516">
        <ele>1469</ele>
        <time>2024-02-10T09:20:14Z</time>
      </trkpt>
      <trkpt lat="45.92143" lon="6.48531">
        <ele>1469</ele>
        <time>2024-02-10T09:20:30Z</time>
      </trkpt>
      <trkpt lat="45.92143" lon="6.48537">
        <ele>1470</ele>
        <time>2024-02-10T09:20:37Z</time>
      </trkpt>
      <trkpt lat="45.92143" lon="6.48542">
        <ele>1470</ele>
        <time>2024-02-10T09:20:43Z</time>
      </trkpt>
      <trkpt lat="45.92142" lon="6.48553">
        <ele>1471</ele>
        <time>2024-02-10T09:20:54Z</time>
      </trkpt>
      <trkpt lat="45.9214" lon="6.48557">
        <ele>1471</ele>
        <time>2024-02-10T09:21:11Z</time>
      </trkpt>
      <trkpt lat="45.9214" lon="6.48564">
        <ele>1471</ele>
        <time>2024-02-10T09:24:01Z</time>
      </trkpt>
      <trkpt lat="45.92138" lon="6.48569">
        <ele>1471</ele>
        <time>2024-02-10T09:24:06Z</time>
      </trkpt>
      <trkpt lat="45.92137" lon="6.48574">
        <ele>1471</ele>
        <time>2024-02-10T09:24:10Z</time>
      </trkpt>
      <trkpt lat="45.92135" lon="6.48579">
        <ele>1473</ele>
        <time>2024-02-10T09:24:15Z</time>
      </trkpt>
      <trkpt lat="45.92129" lon="6.48599">
        <ele>1472</ele>
        <time>2024-02-10T09:24:29Z</time>
      </trkpt>
      <trkpt lat="45.92127" lon="6.48603">
        <ele>1472</ele>
        <time>2024-02-10T09:24:32Z</time>
      </trkpt>
      <trkpt lat="45.92115" lon="6.48645">
        <ele>1472</ele>
        <time>2024-02-10T09:25:02Z</time>
      </trkpt>
      <trkpt lat="45.92116" lon="6.48652">
        <ele>1471</ele>
        <time>2024-02-10T09:25:05Z</time>
      </trkpt>
      <trkpt lat="45.92119" lon="6.48664">
        <ele>1470</ele>
        <time>2024-02-10T09:25:11Z</time>
      </trkpt>
      <trkpt lat="45.92125" lon="6.48673">
        <ele>1468</ele>
        <time>2024-02-10T09:25:16Z</time>
      </trkpt>
      <trkpt lat="45.92145" lon="6.48708">
        <ele>1466</ele>
        <time>2024-02-10T09:25:41Z</time>
      </trkpt>
      <trkpt lat="45.9215" lon="6.48715">
        <ele>1466</ele>
        <time>2024-02-10T09:25:48Z</time>
      </trkpt>
      <trkpt lat="45.92169" lon="6.48768">
        <ele>1464</ele>
        <time>2024-02-10T09:26:20Z</time>
      </trkpt>
      <trkpt lat="45.92178" lon="6.48804">
        <ele>1463</ele>
        <time>2024-02-10T09:26:41Z</time>
      </trkpt>
      <trkpt lat="45.92179" lon="6.48816">
        <ele>1463</ele>
        <time>2024-02-10T09:26:47Z</time>
      </trkpt>
      <trkpt lat="45.92173" lon="6.48837">
        <ele>1459</ele>
        <time>2024-02-10T09:26:56Z</time>
      </trkpt>
      <trkpt lat="45.92165" lon="6.4885">
        <ele>1459</ele>
        <time>2024-02-10T09:27:03Z</time>
      </trkpt>
      <trkpt lat="45.92163" lon="6.48861">
        <ele>1458</ele>
        <time>2024-02-10T09:27:08Z</time>
      </trkpt>
      <trkpt lat="45.92163" lon="6.48866">
        <ele>1458</ele>
        <time>2024-02-10T09:27:11Z</time>
      </trkpt>
      <trkpt lat="45.92164" lon="6.48873">
        <ele>1458</ele>
        <time>2024-02-10T09:27:15Z</time>
      </trkpt>
      <trkpt lat="45.92164" lon="6.4888">
        <ele>1456</ele>
        <time>2024-02-10T09:27:19Z</time>
      </trkpt>
      <trkpt lat="45.92163" lon="6.48886">
        <ele>1455</ele>
        <time>2024-02-10T09:27:23Z</time>
      </trkpt>
      <trkpt lat="45.92161" lon="6.48896">
        <ele>1456</ele>
        <time>2024-02-10T09:27:32Z</time>
      </trkpt>
      <trkpt lat="45.92162" lon="6.48901">
        <ele>1456</ele>
        <time>2024-02-10T09:27:37Z</time>
      </trkpt>
      <trkpt lat="45.92161" lon="6.48912">
        <ele>1457</ele>
        <time>2024-02-10T09:27:46Z</time>
      </trkpt>
      <trkpt lat="45.92162" lon="6.48917">
        <ele>1457</ele>
        <time>2024-02-10T09:27:50Z</time>
      </trkpt>
      <trkpt lat="45.92165" lon="6.48928">
        <ele>1459</ele>
        <time>2024-02-10T09:28:00Z</time>
      </trkpt>
      <trkpt lat="45.92166" lon="6.48944">
        <ele>1460</ele>
        <time>2024-02-10T09:28:15Z</time>
      </trkpt>
      <trkpt lat="45.92166" lon="6.48975">
        <ele>1461</ele>
        <time>2024-02-10T09:28:46Z</time>
      </trkpt>
      <trkpt lat="45.92168" lon="6.48992">
        <ele>1467</ele>
        <time>2024-02-10T09:29:04Z</time>
      </trkpt>
      <trkpt lat="45.92169" lon="6.48997">
        <ele>1467</ele>
        <time>2024-02-10T09:29:12Z</time>
      </trkpt>
      <trkpt lat="45.92169" lon="6.49002">
        <ele>1466</ele>
        <time>2024-02-10T09:29:19Z</time>
      </trkpt>
      <trkpt lat="45.92172" lon="6.49018">
        <ele>1469</ele>
        <time>2024-02-10T09:29:41Z</time>
      </trkpt>
      <trkpt lat="45.92172" lon="6.49023">
        <ele>1469</ele>
        <time>2024-02-10T09:29:46Z</time>
      </trkpt>
      <trkpt lat="45.92173" lon="6.49039">
        <ele>1472</ele>
        <time>2024-02-10T09:30:05Z</time>
      </trkpt>
      <trkpt lat="45.92175" lon="6.49044">
        <ele>1472</ele>
        <time>2024-02-10T09:30:14Z</time>
      </trkpt>
      <trkpt lat="45.92175" lon="6.49055">
        <ele>1473</ele>
        <time>2024-02-10T09:30:26Z</time>
      </trkpt>
      <trkpt lat="45.92176" lon="6.4906">
        <ele>1474</ele>
        <time>2024-02-10T09:30:32Z</time>
      </trkpt>
      <trkpt lat="45.92178" lon="6.49081">
        <ele>1477</ele>
        <time>2024-02-10T09:31:01Z</time>
      </trkpt>
      <trkpt lat="45.92178" lon="6.49092">
        <ele>1478</ele>
        <time>2024-02-10T09:31:14Z</time>
      </trkpt>
      <trkpt lat="45.92178" lon="6.49097">
        <ele>1479</ele>
        <time>2024-02-10T09:31:20Z</time>
      </trkpt>
      <trkpt lat="45.92179" lon="6.49102">
        <ele>1482</ele>
        <time>2024-02-10T09:31:28Z</time>
      </trkpt>
      <trkpt lat="45.92181" lon="6.49106">
        <ele>1482</ele>
        <time>2024-02-10T09:31:36Z</time>
      </trkpt>
      <trkpt lat="45.92182" lon="6.49112">
        <ele>1482</ele>
        <time>2024-02-10T09:31:46Z</time>
      </trkpt>
      <trkpt lat="45.92184" lon="6.49117">
        <ele>1484</ele>
        <time>2024-02-10T09:31:57Z</time>
      </trkpt>
      <trkpt lat="45.92183" lon="6.49122">
        <ele>1485</ele>
        <time>2024-02-10T09:32:04Z</time>
      </trkpt>
      <trkpt lat="45.92185" lon="6.49133">
        <ele>1487</ele>
        <time>2024-02-10T09:32:23Z</time>
      </trkpt>
      <trkpt lat="45.92183" lon="6.49138">
        <ele>1487</ele>
        <time>2024-02-10T09:32:32Z</time>
      </trkpt>
      <trkpt lat="45.92183" lon="6.49143">
        <ele>1490</ele>
        <time>2024-02-10T09:32:38Z</time>
      </trkpt>
      <trkpt lat="45.92185" lon="6.49159">
        <ele>1492</ele>
        <time>2024-02-10T09:33:02Z</time>
      </trkpt>
      <trkpt lat="45.92183" lon="6.49163">
        <ele>1491</ele>
        <time>2024-02-10T09:33:05Z</time>
      </trkpt>
      <trkpt lat="45.92182" lon="6.49168">
        <ele>1491</ele>
        <time>2024-02-10T09:33:13Z</time>
      </trkpt>
      <trkpt lat="45.92183" lon="6.49173">
        <ele>1494</ele>
        <time>2024-02-10T09:33:22Z</time>
      </trkpt>
      <trkpt lat="45.92186" lon="6.49193">
        <ele>1498</ele>
        <time>2024-02-10T09:33:57Z</time>
      </trkpt>
      <trkpt lat="45.9219" lon="6.49215">
        <ele>1502</ele>
        <time>2024-02-10T09:34:29Z</time>
      </trkpt>
      <trkpt lat="45.92188" lon="6.4922">
        <ele>1503</ele>
        <time>2024-02-10T09:34:40Z</time>
      </trkpt>
      <trkpt lat="45.92193" lon="6.49231">
        <ele>1505</ele>
        <time>2024-02-10T09:34:53Z</time>
      </trkpt>
      <trkpt lat="45.92189" lon="6.49246">
        <ele>1508</ele>
        <time>2024-02-10T09:35:20Z</time>
      </trkpt>
      <trkpt lat="45.92187" lon="6.4925">
        <ele>1509</ele>
        <time>2024-02-10T09:35:28Z</time>
      </trkpt>
      <trkpt lat="45.92187" lon="6.49255">
        <ele>1510</ele>
        <time>2024-02-10T09:35:34Z</time>
      </trkpt>
      <trkpt lat="45.92188" lon="6.49261">
        <ele>1511</ele>
        <time>2024-02-10T09:35:40Z</time>
      </trkpt>
      <trkpt lat="45.92189" lon="6.49266">
        <ele>1511</ele>
        <time>2024-02-10T09:35:47Z</time>
      </trkpt>
      <trkpt lat="45.92191" lon="6.49272">
        <ele>1512</ele>
        <time>2024-02-10T09:35:58Z</time>
      </trkpt>
      <trkpt lat="45.92191" lon="6.49279">
        <ele>1514</ele>
        <time>2024-02-10T09:36:09Z</time>
      </trkpt>
      <trkpt lat="45.9219" lon="6.49286">
        <ele>1517</ele>
        <time>2024-02-10T09:36:19Z</time>
      </trkpt>
      <trkpt lat="45.9219" lon="6.49291">
        <ele>1517</ele>
        <time>2024-02-10T09:36:23Z</time>
      </trkpt>
      <trkpt lat="45.9219" lon="6.49297">
        <ele>1518</ele>
        <time>2024-02-10T09:36:36Z</time>
      </trkpt>
      <trkpt lat="45.92194" lon="6.49306">
        <ele>1521</ele>
        <time>2024-02-10T09:36:48Z</time>
      </trkpt>
      <trkpt lat="45.92193" lon="6.49317">
        <ele>1523</ele>
        <time>2024-02-10T09:37:07Z</time>
      </trkpt>
      <trkpt lat="45.9219" lon="6.49321">
        <ele>1524</ele>
        <time>2024-02-10T09:37:13Z</time>
      </trkpt>
      <trkpt lat="45.92189" lon="6.49326">
        <ele>1524</ele>
        <time>2024-02-10T09:37:24Z</time>
      </trkpt>
      <trkpt lat="45.92191" lon="6.49331">
        <ele>1525</ele>
        <time>2024-02-10T09:37:32Z</time>
      </trkpt>
      <trkpt lat="45.92191" lon="6.49338">
        <ele>1526</ele>
        <time>2024-02-10T09:37:44Z</time>
      </trkpt>
      <trkpt lat="45.92189" lon="6.49343">
        <ele>1527</ele>
        <time>2024-02-10T09:37:52Z</time>
      </trkpt>
      <trkpt lat="45.92187" lon="6.49348">
        <ele>1529</ele>
        <time>2024-02-10T09:38:05Z</time>
      </trkpt>
      <trkpt lat="45.92187" lon="6.49353">
        <ele>1530</ele>
        <time>2024-02-10T09:38:12Z</time>
      </trkpt>
      <trkpt lat="45.92189" lon="6.49373">
        <ele>1534</ele>
        <time>2024-02-10T09:38:37Z</time>
      </trkpt>
      <trkpt lat="45.92194" lon="6.49385">
        <ele>1538</ele>
        <time>2024-02-10T09:39:00Z</time>
      </trkpt>
      <trkpt lat="45.92198" lon="6.49399">
        <ele>1541</ele>
        <time>2024-02-10T09:39:19Z</time>
      </trkpt>
      <trkpt lat="45.92202" lon="6.49412">
        <ele>1541</ele>
        <time>2024-02-10T09:39:40Z</time>
      </trkpt>
      <trkpt lat="45.92206" lon="6.49426">
        <ele>1544</ele>
        <time>2024-02-10T09:40:03Z</time>
      </trkpt>
      <trkpt lat="45.9221" lon="6.49438">
        <ele>1548</ele>
        <time>2024-02-10T09:40:16Z</time>
      </trkpt>
      <trkpt lat="45.92213" lon="6.4945">
        <ele>1548</ele>
        <time>2024-02-10T09:40:30Z</time>
      </trkpt>
      <trkpt lat="45.9222" lon="6.49461">
        <ele>1549</ele>
        <time>2024-02-10T09:40:51Z</time>
      </trkpt>
      <trkpt lat="45.9223" lon="6.49462">
        <ele>1550</ele>
        <time>2024-02-10T09:41:03Z</time>
      </trkpt>
      <trkpt lat="45.9224" lon="6.49464">
        <ele>1553</ele>
        <time>2024-02-10T09:41:14Z</time>
      </trkpt>
      <trkpt lat="45.92247" lon="6.49473">
        <ele>1554</ele>
        <time>2024-02-10T09:41:41Z</time>
      </trkpt>
      <trkpt lat="45.92246" lon="6.49486">
        <ele>1560</ele>
        <time>2024-02-10T09:42:08Z</time>
      </trkpt>
      <trkpt lat="45.9224" lon="6.49496">
        <ele>1564</ele>
        <time>2024-02-10T09:42:35Z</time>
      </trkpt>
      <trkpt lat="45.92234" lon="6.49521">
        <ele>1569</ele>
        <time>2024-02-10T09:43:18Z</time>
      </trkpt>
      <trkpt lat="45.92243" lon="6.49526">
        <ele>1570</ele>
        <time>2024-02-10T09:43:40Z</time>
      </trkpt>
      <trkpt lat="45.9225" lon="6.49536">
        <ele>1574</ele>
        <time>2024-02-10T09:44:00Z</time>
      </trkpt>
      <trkpt lat="45.92259" lon="6.49542">
        <ele>1575</ele>
        <time>2024-02-10T09:44:24Z</time>
      </trkpt>
      <trkpt lat="45.92252" lon="6.4955">
        <ele>1582</ele>
        <time>2024-02-10T09:44:49Z</time>
      </trkpt>
      <trkpt lat="45.92244" lon="6.49556">
        <ele>1588</ele>
        <time>2024-02-10T09:45:07Z</time>
      </trkpt>
      <trkpt lat="45.9224" lon="6.49569">
        <ele>1590</ele>
        <time>2024-02-10T09:45:26Z</time>
      </trkpt>
      <trkpt lat="45.92249" lon="6.49572">
        <ele>1590</ele>
        <time>2024-02-10T09:45:39Z</time>
      </trkpt>
      <trkpt lat="45.92257" lon="6.49582">
        <ele>1595</ele>
        <time>2024-02-10T09:46:09Z</time>
      </trkpt>
      <trkpt lat="45.92256" lon="6.49596">
        <ele>1597</ele>
        <time>2024-02-10T09:46:57Z</time>
      </trkpt>
      <trkpt lat="45.92246" lon="6.49599">
        <ele>1600</ele>
        <time>2024-02-10T09:47:20Z</time>
      </trkpt>
      <trkpt lat="45.92226" lon="6.49601">
        <ele>1613</ele>
        <time>2024-02-10T09:47:58Z</time>
      </trkpt>
      <trkpt lat="45.92217" lon="6.49602">
        <ele>1616</ele>
        <time>2024-02-10T09:48:32Z</time>
      </trkpt>
      <trkpt lat="45.92208" lon="6.49603">
        <ele>1616</ele>
        <time>2024-02-10T09:48:55Z</time>
      </trkpt>
      <trkpt lat="45.92199" lon="6.4961">
        <ele>1618</ele>
        <time>2024-02-10T09:49:19Z</time>
      </trkpt>
      <trkpt lat="45.92205" lon="6.49619">
        <ele>1617</ele>
        <time>2024-02-10T09:49:45Z</time>
      </trkpt>
      <trkpt lat="45.922" lon="6.49631">
        <ele>1623</ele>
        <time>2024-02-10T09:50:35Z</time>
      </trkpt>
      <trkpt lat="45.92197" lon="6.49643">
        <ele>1628</ele>
        <time>2024-02-10T09:51:22Z</time>
      </trkpt>
      <trkpt lat="45.92193" lon="6.49642">
        <ele>1633</ele>
        <time>2024-02-10T09:51:36Z</time>
      </trkpt>
      <trkpt lat="45.9219" lon="6.49644">
        <ele>1635</ele>
        <time>2024-02-10T09:51:44Z</time>
      </trkpt>
      <trkpt lat="45.92186" lon="6.49646">
        <ele>1636</ele>
        <time>2024-02-10T09:51:55Z</time>
      </trkpt>
      <trkpt lat="45.92183" lon="6.49646">
        <ele>1636</ele>
        <time>2024-02-10T09:52:04Z</time>
      </trkpt>
      <trkpt lat="45.92179" lon="6.49647">
        <ele>1637</ele>
        <time>2024-02-10T09:52:14Z</time>
      </trkpt>
      <trkpt lat="45.92176" lon="6.49645">
        <ele>1639</ele>
        <time>2024-02-10T09:52:24Z</time>
      </trkpt>
      <trkpt lat="45.92169" lon="6.49636">
        <ele>1641</ele>
        <time>2024-02-10T09:52:40Z</time>
      </trkpt>
      <trkpt lat="45.9216" lon="6.49639">
        <ele>1644</ele>
        <time>2024-02-10T09:53:01Z</time>
      </trkpt>
      <trkpt lat="45.92153" lon="6.49649">
        <ele>1646</ele>
        <time>2024-02-10T09:53:24Z</time>
      </trkpt>
      <trkpt lat="45.92154" lon="6.49662">
        <ele>1648</ele>
        <time>2024-02-10T09:55:19Z</time>
      </trkpt>
      <trkpt lat="45.92157" lon="6.49675">
        <ele>1649</ele>
        <time>2024-02-10T09:55:34Z</time>
      </trkpt>
      <trkpt lat="45.9216" lon="6.49688">
        <ele>1651</ele>
        <time>2024-02-10T09:55:54Z</time>
      </trkpt>
      <trkpt lat="45.92161" lon="6.49701">
        <ele>1652</ele>
        <time>2024-02-10T09:56:10Z</time>
      </trkpt>
      <trkpt lat="45.92154" lon="6.4971">
        <ele>1656</ele>
        <time>2024-02-10T09:56:44Z</time>
      </trkpt>
      <trkpt lat="45.92147" lon="6.49717">
        <ele>1663</ele>
        <time>2024-02-10T09:57:11Z</time>
      </trkpt>
      <trkpt lat="45.92139" lon="6.49724">
        <ele>1666</ele>
        <time>2024-02-10T09:57:31Z</time>
      </trkpt>
      <trkpt lat="45.92131" lon="6.49728">
        <ele>1670</ele>
        <time>2024-02-10T09:57:52Z</time>
      </trkpt>
      <trkpt lat="45.92123" lon="6.49735">
        <ele>1672</ele>
        <time>2024-02-10T09:58:19Z</time>
      </trkpt>
      <trkpt lat="45.92128" lon="6.49747">
        <ele>1674</ele>
        <time>2024-02-10T09:58:33Z</time>
      </trkpt>
      <trkpt lat="45.9212" lon="6.49753">
        <ele>1677</ele>
        <time>2024-02-10T09:59:20Z</time>
      </trkpt>
      <trkpt lat="45.92118" lon="6.49767">
        <ele>1679</ele>
        <time>2024-02-10T09:59:45Z</time>
      </trkpt>
      <trkpt lat="45.92109" lon="6.49763">
        <ele>1688</ele>
        <time>2024-02-10T10:00:17Z</time>
      </trkpt>
      <trkpt lat="45.92101" lon="6.49756">
        <ele>1695</ele>
        <time>2024-02-10T10:00:36Z</time>
      </trkpt>
      <trkpt lat="45.92091" lon="6.49755">
        <ele>1699</ele>
        <time>2024-02-10T10:01:00Z</time>
      </trkpt>
      <trkpt lat="45.92082" lon="6.49758">
        <ele>1703</ele>
        <time>2024-02-10T10:02:04Z</time>
      </trkpt>
      <trkpt lat="45.92072" lon="6.49761">
        <ele>1704</ele>
        <time>2024-02-10T10:02:23Z</time>
      </trkpt>
      <trkpt lat="45.9207" lon="6.49774">
        <ele>1704</ele>
        <time>2024-02-10T10:02:37Z</time>
      </trkpt>
      <trkpt lat="45.92067" lon="6.49787">
        <ele>1708</ele>
        <time>2024-02-10T10:03:00Z</time>
      </trkpt>
      <trkpt lat="45.92057" lon="6.49786">
        <ele>1711</ele>
        <time>2024-02-10T10:03:27Z</time>
      </trkpt>
      <trkpt lat="45.92048" lon="6.49791">
        <ele>1719</ele>
        <time>2024-02-10T10:03:48Z</time>
      </trkpt>
      <trkpt lat="45.9205" lon="6.49805">
        <ele>1719</ele>
        <time>2024-02-10T10:04:07Z</time>
      </trkpt>
      <trkpt lat="45.92043" lon="6.49815">
        <ele>1724</ele>
        <time>2024-02-10T10:04:37Z</time>
      </trkpt>
      <trkpt lat="45.9204" lon="6.49828">
        <ele>1724</ele>
        <time>2024-02-10T10:04:55Z</time>
      </trkpt>
      <trkpt lat="45.92045" lon="6.49841">
        <ele>1724</ele>
        <time>2024-02-10T10:05:13Z</time>
      </trkpt>
      <trkpt lat="45.92045" lon="6.49855">
        <ele>1725</ele>
        <time>2024-02-10T10:05:31Z</time>
      </trkpt>
      <trkpt lat="45.92042" lon="6.49868">
        <ele>1731</ele>
        <time>2024-02-10T10:06:00Z</time>
      </trkpt>
      <trkpt lat="45.92043" lon="6.49883">
        <ele>1735</ele>
        <time>2024-02-10T10:06:28Z</time>
      </trkpt>
      <trkpt lat="45.92034" lon="6.49883">
        <ele>1745</ele>
        <time>2024-02-10T10:07:08Z</time>
      </trkpt>
      <trkpt lat="45.92027" lon="6.49875">
        <ele>1748</ele>
        <time>2024-02-10T10:07:24Z</time>
      </trkpt>
      <trkpt lat="45.9202" lon="6.49865">
        <ele>1754</ele>
        <time>2024-02-10T10:07:44Z</time>
      </trkpt>
      <trkpt lat="45.92013" lon="6.49858">
        <ele>1756</ele>
        <time>2024-02-10T10:08:02Z</time>
      </trkpt>
      <trkpt lat="45.92003" lon="6.49856">
        <ele>1761</ele>
        <time>2024-02-10T10:08:21Z</time>
      </trkpt>
      <trkpt lat="45.92" lon="6.49869">
        <ele>1762</ele>
        <time>2024-02-10T10:08:40Z</time>
      </trkpt>
      <trkpt lat="45.92002" lon="6.49897">
        <ele>1764</ele>
        <time>2024-02-10T10:09:16Z</time>
      </trkpt>
      <trkpt lat="45.92" lon="6.4991">
        <ele>1764</ele>
        <time>2024-02-10T10:09:29Z</time>
      </trkpt>
      <trkpt lat="45.91996" lon="6.49912">
        <ele>1766</ele>
        <time>2024-02-10T10:10:13Z</time>
      </trkpt>
      <trkpt lat="45.91988" lon="6.49904">
        <ele>1768</ele>
        <time>2024-02-10T10:10:28Z</time>
      </trkpt>
      <trkpt lat="45.9198" lon="6.49899">
        <ele>1775</ele>
        <time>2024-02-10T10:10:46Z</time>
      </trkpt>
      <trkpt lat="45.91971" lon="6.49897">
        <ele>1779</ele>
        <time>2024-02-10T10:11:04Z</time>
      </trkpt>
      <trkpt lat="45.91969" lon="6.4991">
        <ele>1780</ele>
        <time>2024-02-10T10:11:25Z</time>
      </trkpt>
      <trkpt lat="45.91971" lon="6.49923">
        <ele>1783</ele>
        <time>2024-02-10T10:11:43Z</time>
      </trkpt>
      <trkpt lat="45.91972" lon="6.49937">
        <ele>1783</ele>
        <time>2024-02-10T10:12:00Z</time>
      </trkpt>
      <trkpt lat="45.91971" lon="6.49938">
        <ele>1787</ele>
        <time>2024-02-10T10:12:33Z</time>
      </trkpt>
      <trkpt lat="45.91963" lon="6.49932">
        <ele>1790</ele>
        <time>2024-02-10T10:12:52Z</time>
      </trkpt>
      <trkpt lat="45.91954" lon="6.49927">
        <ele>1800</ele>
        <time>2024-02-10T10:13:17Z</time>
      </trkpt>
      <trkpt lat="45.91952" lon="6.49941">
        <ele>1800</ele>
        <time>2024-02-10T10:13:41Z</time>
      </trkpt>
      <trkpt lat="45.91953" lon="6.49955">
        <ele>1798</ele>
        <time>2024-02-10T10:14:03Z</time>
      </trkpt>
      <trkpt lat="45.91948" lon="6.49964">
        <ele>1805</ele>
        <time>2024-02-10T10:15:08Z</time>
      </trkpt>
      <trkpt lat="45.91941" lon="6.49956">
        <ele>1807</ele>
        <time>2024-02-10T10:15:25Z</time>
      </trkpt>
      <trkpt lat="45.9194" lon="6.4997">
        <ele>1808</ele>
        <time>2024-02-10T10:15:55Z</time>
      </trkpt>
      <trkpt lat="45.91931" lon="6.49967">
        <ele>1817</ele>
        <time>2024-02-10T10:16:31Z</time>
      </trkpt>
      <trkpt lat="45.91923" lon="6.49961">
        <ele>1819</ele>
        <time>2024-02-10T10:16:53Z</time>
      </trkpt>
      <trkpt lat="45.91909" lon="6.49944">
        <ele>1825</ele>
        <time>2024-02-10T10:17:34Z</time>
      </trkpt>
      <trkpt lat="45.91896" lon="6.49925">
        <ele>1831</ele>
        <time>2024-02-10T10:18:17Z</time>
      </trkpt>
      <trkpt lat="45.9189" lon="6.49915">
        <ele>1836</ele>
        <time>2024-02-10T10:18:30Z</time>
      </trkpt>
      <trkpt lat="45.91881" lon="6.4991">
        <ele>1838</ele>
        <time>2024-02-10T10:18:57Z</time>
      </trkpt>
      <trkpt lat="45.91866" lon="6.49896">
        <ele>1842</ele>
        <time>2024-02-10T10:19:40Z</time>
      </trkpt>
      <trkpt lat="45.91859" lon="6.49888">
        <ele>1847</ele>
        <time>2024-02-10T10:20:03Z</time>
      </trkpt>
      <trkpt lat="45.91851" lon="6.49884">
        <ele>1849</ele>
        <time>2024-02-10T10:20:26Z</time>
      </trkpt>
      <trkpt lat="45.91833" lon="6.49881">
        <ele>1853</ele>
        <time>2024-02-10T10:21:06Z</time>
      </trkpt>
      <trkpt lat="45.91824" lon="6.49881">
        <ele>1855</ele>
        <time>2024-02-10T10:21:24Z</time>
      </trkpt>
      <trkpt lat="45.91815" lon="6.49885">
        <ele>1856</ele>
        <time>2024-02-10T10:21:47Z</time>
      </trkpt>
      <trkpt lat="45.91812" lon="6.49898">
        <ele>1858</ele>
        <time>2024-02-10T10:22:06Z</time>
      </trkpt>
      <trkpt lat="45.91817" lon="6.49911">
        <ele>1859</ele>
        <time>2024-02-10T10:22:30Z</time>
      </trkpt>
      <trkpt lat="45.9182" lon="6.49925">
        <ele>1860</ele>
        <time>2024-02-10T10:22:51Z</time>
      </trkpt>
      <trkpt lat="45.9181" lon="6.49925">
        <ele>1867</ele>
        <time>2024-02-10T10:28:58Z</time>
      </trkpt>
      <trkpt lat="45.91802" lon="6.49931">
        <ele>1870</ele>
        <time>2024-02-10T10:29:14Z</time>
      </trkpt>
      <trkpt lat="45.91793" lon="6.49935">
        <ele>1870</ele>
        <time>2024-02-10T10:29:29Z</time>
      </trkpt>
      <trkpt lat="45.91776" lon="6.49928">
        <ele>1875</ele>
        <time>2024-02-10T10:30:06Z</time>
      </trkpt>
      <trkpt lat="45.91767" lon="6.49926">
        <ele>1880</ele>
        <time>2024-02-10T10:30:24Z</time>
      </trkpt>
      <trkpt lat="45.91757" lon="6.49924">
        <ele>1881</ele>
        <time>2024-02-10T10:30:44Z</time>
      </trkpt>
      <trkpt lat="45.91748" lon="6.49921">
        <ele>1884</ele>
        <time>2024-02-10T10:31:07Z</time>
      </trkpt>
      <trkpt lat="45.9174" lon="6.49912">
        <ele>1885</ele>
        <time>2024-02-10T10:31:21Z</time>
      </trkpt>
      <trkpt lat="45.91722" lon="6.49905">
        <ele>1885</ele>
        <time>2024-02-10T10:31:56Z</time>
      </trkpt>
      <trkpt lat="45.91714" lon="6.49898">
        <ele>1881</ele>
        <time>2024-02-10T10:32:14Z</time>
      </trkpt>
      <trkpt lat="45.91707" lon="6.49887">
        <ele>1882</ele>
        <time>2024-02-10T10:32:25Z</time>
      </trkpt>
      <trkpt lat="45.91699" lon="6.49875">
        <ele>1894</ele>
        <time>2024-02-10T10:33:00Z</time>
      </trkpt>
      <trkpt lat="45.91689" lon="6.49877">
        <ele>1901</ele>
        <time>2024-02-10T10:33:20Z</time>
      </trkpt>
      <trkpt lat="45.91682" lon="6.49888">
        <ele>1900</ele>
        <time>2024-02-10T10:33:44Z</time>
      </trkpt>
      <trkpt lat="45.91677" lon="6.49901">
        <ele>1897</ele>
        <time>2024-02-10T10:33:57Z</time>
      </trkpt>
      <trkpt lat="45.91666" lon="6.49905">
        <ele>1895</ele>
        <time>2024-02-10T10:34:25Z</time>
      </trkpt>
      <trkpt lat="45.91654" lon="6.49911">
        <ele>1902</ele>
        <time>2024-02-10T10:34:51Z</time>
      </trkpt>
      <trkpt lat="45.91636" lon="6.49897">
        <ele>1914</ele>
        <time>2024-02-10T10:35:43Z</time>
      </trkpt>
      <trkpt lat="45.91624" lon="6.4989">
        <ele>1916</ele>
        <time>2024-02-10T10:36:06Z</time>
      </trkpt>
      <trkpt lat="45.91611" lon="6.49882">
        <ele>1911</ele>
        <time>2024-02-10T10:36:21Z</time>
      </trkpt>
      <trkpt lat="45.91597" lon="6.49867">
        <ele>1909</ele>
        <time>2024-02-10T10:36:42Z</time>
      </trkpt>
      <trkpt lat="45.91594" lon="6.49889">
        <ele>1902</ele>
        <time>2024-02-10T10:37:02Z</time>
      </trkpt>
      <trkpt lat="45.91588" lon="6.49907">
        <ele>1896</ele>
        <time>2024-02-10T10:37:30Z</time>
      </trkpt>
      <trkpt lat="45.91578" lon="6.49896">
        <ele>1898</ele>
        <time>2024-02-10T10:38:22Z</time>
      </trkpt>
      <trkpt lat="45.91566" lon="6.49906">
        <ele>1901</ele>
        <time>2024-02-10T10:39:13Z</time>
      </trkpt>
      <trkpt lat="45.9156" lon="6.49922">
        <ele>1933</ele>
        <time>2024-02-10T10:40:48Z</time>
      </trkpt>
      <trkpt lat="45.91554" lon="6.49939">
        <ele>1937</ele>
        <time>2024-02-10T10:42:02Z</time>
      </trkpt>
      <trkpt lat="45.91543" lon="6.49946">
        <ele>1944</ele>
        <time>2024-02-10T10:42:45Z</time>
      </trkpt>
      <trkpt lat="45.91547" lon="6.49964">
        <ele>1944</ele>
        <time>2024-02-10T10:43:22Z</time>
      </trkpt>
      <trkpt lat="45.91564" lon="6.49989">
        <ele>1961</ele>
        <time>2024-02-10T10:43:56Z</time>
      </trkpt>
      <trkpt lat="45.91567" lon="6.50004">
        <ele>1965</ele>
        <time>2024-02-10T10:44:30Z</time>
      </trkpt>
      <trkpt lat="45.91564" lon="6.5002">
        <ele>1975</ele>
        <time>2024-02-10T10:44:53Z</time>
      </trkpt>
      <trkpt lat="45.91555" lon="6.5003">
        <ele>1977</ele>
        <time>2024-02-10T10:45:23Z</time>
      </trkpt>
      <trkpt lat="45.91546" lon="6.50042">
        <ele>1985</ele>
        <time>2024-02-10T10:45:53Z</time>
      </trkpt>
      <trkpt lat="45.91538" lon="6.50051">
        <ele>1987</ele>
        <time>2024-02-10T10:46:22Z</time>
      </trkpt>
      <trkpt lat="45.91528" lon="6.50061">
        <ele>1994</ele>
        <time>2024-02-10T10:46:48Z</time>
      </trkpt>
      <trkpt lat="45.91517" lon="6.50063">
        <ele>1993</ele>
        <time>2024-02-10T10:47:08Z</time>
      </trkpt>
      <trkpt lat="45.91512" lon="6.50078">
        <ele>1992</ele>
        <time>2024-02-10T10:47:22Z</time>
      </trkpt>
      <trkpt lat="45.91512" lon="6.50096">
        <ele>1990</ele>
        <time>2024-02-10T10:47:40Z</time>
      </trkpt>
      <trkpt lat="45.91529" lon="6.50101">
        <ele>1987</ele>
        <time>2024-02-10T10:47:53Z</time>
      </trkpt>
      <trkpt lat="45.91532" lon="6.50115">
        <ele>1997</ele>
        <time>2024-02-10T10:48:29Z</time>
      </trkpt>
      <trkpt lat="45.91541" lon="6.50127">
        <ele>2002</ele>
        <time>2024-02-10T10:48:47Z</time>
      </trkpt>
      <trkpt lat="45.91537" lon="6.50143">
        <ele>2003</ele>
        <time>2024-02-10T10:49:08Z</time>
      </trkpt>
      <trkpt lat="45.91529" lon="6.50152">
        <ele>2009</ele>
        <time>2024-02-10T10:49:40Z</time>
      </trkpt>
      <trkpt lat="45.91521" lon="6.50166">
        <ele>2012</ele>
        <time>2024-02-10T10:50:15Z</time>
      </trkpt>
      <trkpt lat="45.91527" lon="6.50177">
        <ele>2017</ele>
        <time>2024-02-10T10:50:41Z</time>
      </trkpt>
      <trkpt lat="45.91521" lon="6.5019">
        <ele>2016</ele>
        <time>2024-02-10T10:51:02Z</time>
      </trkpt>
      <trkpt lat="45.91514" lon="6.50201">
        <ele>2019</ele>
        <time>2024-02-10T10:51:25Z</time>
      </trkpt>
      <trkpt lat="45.91507" lon="6.50213">
        <ele>2021</ele>
        <time>2024-02-10T10:51:47Z</time>
      </trkpt>
      <trkpt lat="45.91507" lon="6.50227">
        <ele>2022</ele>
        <time>2024-02-10T10:52:15Z</time>
      </trkpt>
      <trkpt lat="45.91511" lon="6.50244">
        <ele>2023</ele>
        <time>2024-02-10T10:52:42Z</time>
      </trkpt>
      <trkpt lat="45.91518" lon="6.50254">
        <ele>2032</ele>
        <time>2024-02-10T10:52:59Z</time>
      </trkpt>
      <trkpt lat="45.91525" lon="6.50265">
        <ele>2039</ele>
        <time>2024-02-10T10:53:29Z</time>
      </trkpt>
      <trkpt lat="45.9153" lon="6.50279">
        <ele>2040</ele>
        <time>2024-02-10T10:53:54Z</time>
      </trkpt>
      <trkpt lat="45.91523" lon="6.50289">
        <ele>2042</ele>
        <time>2024-02-10T10:54:17Z</time>
      </trkpt>
      <trkpt lat="45.91508" lon="6.50306">
        <ele>2047</ele>
        <time>2024-02-10T10:54:53Z</time>
      </trkpt>
      <trkpt lat="45.91499" lon="6.50309">
        <ele>2052</ele>
        <time>2024-02-10T10:55:25Z</time>
      </trkpt>
      <trkpt lat="45.91491" lon="6.50315">
        <ele>2054</ele>
        <time>2024-02-10T10:55:40Z</time>
      </trkpt>
      <trkpt lat="45.91482" lon="6.50321">
        <ele>2054</ele>
        <time>2024-02-10T10:56:04Z</time>
      </trkpt>
      <trkpt lat="45.91477" lon="6.50332">
        <ele>2054</ele>
        <time>2024-02-10T10:56:18Z</time>
      </trkpt>
      <trkpt lat="45.91469" lon="6.50341">
        <ele>2065</ele>
        <time>2024-02-10T10:56:57Z</time>
      </trkpt>
      <trkpt lat="45.91463" lon="6.5035">
        <ele>2067</ele>
        <time>2024-02-10T10:57:15Z</time>
      </trkpt>
      <trkpt lat="45.91456" lon="6.50341">
        <ele>2067</ele>
        <time>2024-02-10T10:57:38Z</time>
      </trkpt>
      <trkpt lat="45.91449" lon="6.50333">
        <ele>2072</ele>
        <time>2024-02-10T10:57:53Z</time>
      </trkpt>
      <trkpt lat="45.9144" lon="6.50341">
        <ele>2072</ele>
        <time>2024-02-10T10:58:05Z</time>
      </trkpt>
      <trkpt lat="45.91435" lon="6.5033">
        <ele>2079</ele>
        <time>2024-02-10T10:58:58Z</time>
      </trkpt>
      <trkpt lat="45.91432" lon="6.50317">
        <ele>2081</ele>
        <time>2024-02-10T10:59:22Z</time>
      </trkpt>
      <trkpt lat="45.91425" lon="6.50326">
        <ele>2083</ele>
        <time>2024-02-10T11:00:03Z</time>
      </trkpt>
      <trkpt lat="45.91419" lon="6.50338">
        <ele>2083</ele>
        <time>2024-02-10T11:00:23Z</time>
      </trkpt>
      <trkpt lat="45.91412" lon="6.50348">
        <ele>2086</ele>
        <time>2024-02-10T11:00:57Z</time>
      </trkpt>
      <trkpt lat="45.91409" lon="6.50363">
        <ele>2088</ele>
        <time>2024-02-10T11:01:16Z</time>
      </trkpt>
      <trkpt lat="45.91402" lon="6.50372">
        <ele>2090</ele>
        <time>2024-02-10T11:01:34Z</time>
      </trkpt>
      <trkpt lat="45.91395" lon="6.50359">
        <ele>2093</ele>
        <time>2024-02-10T11:02:04Z</time>
      </trkpt>
      <trkpt lat="45.9139" lon="6.50348">
        <ele>2101</ele>
        <time>2024-02-10T11:02:25Z</time>
      </trkpt>
      <trkpt lat="45.91383" lon="6.50338">
        <ele>2103</ele>
        <time>2024-02-10T11:02:50Z</time>
      </trkpt>
      <trkpt lat="45.91375" lon="6.50331">
        <ele>2105</ele>
        <time>2024-02-10T11:03:06Z</time>
      </trkpt>
      <trkpt lat="45.9137" lon="6.50319">
        <ele>2109</ele>
        <time>2024-02-10T11:03:41Z</time>
      </trkpt>
      <trkpt lat="45.91358" lon="6.50317">
        <ele>2112</ele>
        <time>2024-02-10T11:03:53Z</time>
      </trkpt>
      <trkpt lat="45.91349" lon="6.50309">
        <ele>2114</ele>
        <time>2024-02-10T11:04:25Z</time>
      </trkpt>
      <trkpt lat="45.9133" lon="6.50293">
        <ele>2119</ele>
        <time>2024-02-10T11:05:26Z</time>
      </trkpt>
      <trkpt lat="45.91319" lon="6.50287">
        <ele>2123</ele>
        <time>2024-02-10T11:05:46Z</time>
      </trkpt>
      <trkpt lat="45.91308" lon="6.50285">
        <ele>2125</ele>
        <time>2024-02-10T11:06:17Z</time>
      </trkpt>
      <trkpt lat="45.913" lon="6.50297">
        <ele>2124</ele>
        <time>2024-02-10T11:06:34Z</time>
      </trkpt>
      <trkpt lat="45.91301" lon="6.50312">
        <ele>2128</ele>
        <time>2024-02-10T11:07:01Z</time>
      </trkpt>
      <trkpt lat="45.91292" lon="6.50319">
        <ele>2138</ele>
        <time>2024-02-10T11:07:53Z</time>
      </trkpt>
      <trkpt lat="45.91286" lon="6.50306">
        <ele>2149</ele>
        <time>2024-02-10T11:08:29Z</time>
      </trkpt>
      <trkpt lat="45.91277" lon="6.50312">
        <ele>2153</ele>
        <time>2024-02-10T11:08:59Z</time>
      </trkpt>
      <trkpt lat="45.91279" lon="6.50326">
        <ele>2154</ele>
        <time>2024-02-10T11:09:28Z</time>
      </trkpt>
      <trkpt lat="45.91269" lon="6.50351">
        <ele>2154</ele>
        <time>2024-02-10T11:10:12Z</time>
      </trkpt>
      <trkpt lat="45.91269" lon="6.50366">
        <ele>2160</ele>
        <time>2024-02-10T11:10:34Z</time>
      </trkpt>
      <trkpt lat="45.91262" lon="6.50373">
        <ele>2177</ele>
        <time>2024-02-10T11:11:36Z</time>
      </trkpt>
      <trkpt lat="45.91254" lon="6.50365">
        <ele>2177</ele>
        <time>2024-02-10T11:11:59Z</time>
      </trkpt>
      <trkpt lat="45.91252" lon="6.50379">
        <ele>2179</ele>
        <time>2024-02-10T11:12:24Z</time>
      </trkpt>
      <trkpt lat="45.9125" lon="6.50392">
        <ele>2183</ele>
        <time>2024-02-10T11:12:47Z</time>
      </trkpt>
      <trkpt lat="45.91244" lon="6.50396">
        <ele>2188</ele>
        <time>2024-02-10T11:13:34Z</time>
      </trkpt>
      <trkpt lat="45.91237" lon="6.50386">
        <ele>2190</ele>
        <time>2024-02-10T11:13:56Z</time>
      </trkpt>
      <trkpt lat="45.91231" lon="6.50397">
        <ele>2197</ele>
        <time>2024-02-10T11:14:47Z</time>
      </trkpt>
      <trkpt lat="45.91224" lon="6.50401">
        <ele>2202</ele>
        <time>2024-02-10T11:15:46Z</time>
      </trkpt>
      <trkpt lat="45.91215" lon="6.50403">
        <ele>2205</ele>
        <time>2024-02-10T11:16:27Z</time>
      </trkpt>
      <trkpt lat="45.91212" lon="6.50416">
        <ele>2209</ele>
        <time>2024-02-10T11:16:44Z</time>
      </trkpt>
      <trkpt lat="45.91214" lon="6.50429">
        <ele>2210</ele>
        <time>2024-02-10T11:17:13Z</time>
      </trkpt>
      <trkpt lat="45.91215" lon="6.50442">
        <ele>2214</ele>
        <time>2024-02-10T11:17:34Z</time>
      </trkpt>
      <trkpt lat="45.91217" lon="6.50455">
        <ele>2215</ele>
        <time>2024-02-10T11:17:59Z</time>
      </trkpt>
      <trkpt lat="45.91216" lon="6.50468">
        <ele>2219</ele>
        <time>2024-02-10T11:18:28Z</time>
      </trkpt>
      <trkpt lat="45.91221" lon="6.50479">
        <ele>2220</ele>
        <time>2024-02-10T11:18:45Z</time>
      </trkpt>
      <trkpt lat="45.91224" lon="6.50505">
        <ele>2226</ele>
        <time>2024-02-10T11:19:33Z</time>
      </trkpt>
      <trkpt lat="45.91222" lon="6.50532">
        <ele>2230</ele>
        <time>2024-02-10T11:20:17Z</time>
      </trkpt>
      <trkpt lat="45.91225" lon="6.50558">
        <ele>2233</ele>
        <time>2024-02-10T11:21:10Z</time>
      </trkpt>
      <trkpt lat="45.91228" lon="6.50571">
        <ele>2239</ele>
        <time>2024-02-10T11:21:32Z</time>
      </trkpt>
      <trkpt lat="45.9123" lon="6.50584">
        <ele>2240</ele>
        <time>2024-02-10T11:21:55Z</time>
      </trkpt>
      <trkpt lat="45.91228" lon="6.50598">
        <ele>2243</ele>
        <time>2024-02-10T11:22:21Z</time>
      </trkpt>
      <trkpt lat="45.91228" lon="6.50611">
        <ele>2244</ele>
        <time>2024-02-10T11:22:48Z</time>
      </trkpt>
      <trkpt lat="45.9123" lon="6.50624">
        <ele>2248</ele>
        <time>2024-02-10T11:23:16Z</time>
      </trkpt>
      <trkpt lat="45.91227" lon="6.50637">
        <ele>2249</ele>
        <time>2024-02-10T11:23:41Z</time>
      </trkpt>
      <trkpt lat="45.9122" lon="6.50629">
        <ele>2253</ele>
        <time>2024-02-10T11:24:28Z</time>
      </trkpt>
      <trkpt lat="45.91216" lon="6.50641">
        <ele>2263</ele>
        <time>2024-02-10T11:25:23Z</time>
      </trkpt>
      <trkpt lat="45.91216" lon="6.50654">
        <ele>2264</ele>
        <time>2024-02-10T11:25:45Z</time>
      </trkpt>
      <trkpt lat="45.91207" lon="6.50649">
        <ele>2269</ele>
        <time>2024-02-10T11:26:41Z</time>
      </trkpt>
      <trkpt lat="45.91201" lon="6.50639">
        <ele>2271</ele>
        <time>2024-02-10T11:27:03Z</time>
      </trkpt>
      <trkpt lat="45.91194" lon="6.5063">
        <ele>2275</ele>
        <time>2024-02-10T11:27:28Z</time>
      </trkpt>
      <trkpt lat="45.9119" lon="6.50618">
        <ele>2276</ele>
        <time>2024-02-10T11:27:49Z</time>
      </trkpt>
      <trkpt lat="45.91183" lon="6.5061">
        <ele>2279</ele>
        <time>2024-02-10T11:28:14Z</time>
      </trkpt>
      <trkpt lat="45.91176" lon="6.50603">
        <ele>2282</ele>
        <time>2024-02-10T11:28:39Z</time>
      </trkpt>
      <trkpt lat="45.91168" lon="6.50597">
        <ele>2285</ele>
        <time>2024-02-10T11:29:02Z</time>
      </trkpt>
      <trkpt lat="45.91167" lon="6.5061">
        <ele>2286</ele>
        <time>2024-02-10T11:29:36Z</time>
      </trkpt>
      <trkpt lat="45.91166" lon="6.50624">
        <ele>2286</ele>
        <time>2024-02-10T11:30:03Z</time>
      </trkpt>
      <trkpt lat="45.91159" lon="6.50616">
        <ele>2293</ele>
        <time>2024-02-10T11:30:50Z</time>
      </trkpt>
      <trkpt lat="45.91155" lon="6.50628">
        <ele>2295</ele>
        <time>2024-02-10T11:31:32Z</time>
      </trkpt>
      <trkpt lat="45.9115" lon="6.50633">
        <ele>2302</ele>
        <time>2024-02-10T11:33:03Z</time>
      </trkpt>
      <trkpt lat="45.91142" lon="6.50629">
        <ele>2302</ele>
        <time>2024-02-10T11:33:25Z</time>
      </trkpt>
      <trkpt lat="45.91145" lon="6.50625">
        <ele>2302</ele>
        <time>2024-02-10T11:35:10Z</time>
      </trkpt>
      <trkpt lat="45.9114" lon="6.5063">
        <ele>2298</ele>
        <time>2024-02-10T11:39:34Z</time>
      </trkpt>
      <trkpt lat="45.91131" lon="6.50627">
        <ele>2299</ele>
        <time>2024-02-10T11:39:58Z</time>
      </trkpt>
      <trkpt lat="45.9113" lon="6.5064">
        <ele>2309</ele>
        <time>2024-02-10T11:45:16Z</time>
      </trkpt>
      <trkpt lat="45.91128" lon="6.50654">
        <ele>2309</ele>
        <time>2024-02-10T11:45:30Z</time>
      </trkpt>
      <trkpt lat="45.9112" lon="6.50647">
        <ele>2310</ele>
        <time>2024-02-10T11:46:20Z</time>
      </trkpt>
      <trkpt lat="45.91112" lon="6.50641">
        <ele>2310</ele>
        <time>2024-02-10T11:46:41Z</time>
      </trkpt>
      <trkpt lat="45.91103" lon="6.50646">
        <ele>2321</ele>
        <time>2024-02-10T11:47:42Z</time>
      </trkpt>
      <trkpt lat="45.91097" lon="6.50651">
        <ele>2325</ele>
        <time>2024-02-10T11:48:46Z</time>
      </trkpt>
      <trkpt lat="45.91089" lon="6.50646">
        <ele>2333</ele>
        <time>2024-02-10T11:49:15Z</time>
      </trkpt>
      <trkpt lat="45.91083" lon="6.50654">
        <ele>2337</ele>
        <time>2024-02-10T11:50:27Z</time>
      </trkpt>
      <trkpt lat="45.91074" lon="6.50652">
        <ele>2342</ele>
        <time>2024-02-10T11:51:17Z</time>
      </trkpt>
      <trkpt lat="45.91065" lon="6.50648">
        <ele>2343</ele>
        <time>2024-02-10T11:51:33Z</time>
      </trkpt>
      <trkpt lat="45.91058" lon="6.50653">
        <ele>2348</ele>
        <time>2024-02-10T11:53:17Z</time>
      </trkpt>
      <trkpt lat="45.91054" lon="6.50642">
        <ele>2355</ele>
        <time>2024-02-10T11:53:39Z</time>
      </trkpt>
      <trkpt lat="45.9105" lon="6.5063">
        <ele>2356</ele>
        <time>2024-02-10T11:54:02Z</time>
      </trkpt>
      <trkpt lat="45.91044" lon="6.5062">
        <ele>2360</ele>
        <time>2024-02-10T11:54:33Z</time>
      </trkpt>
      <trkpt lat="45.91037" lon="6.5061">
        <ele>2361</ele>
        <time>2024-02-10T11:54:56Z</time>
      </trkpt>
      <trkpt lat="45.91031" lon="6.506">
        <ele>2366</ele>
        <time>2024-02-10T11:55:20Z</time>
      </trkpt>
      <trkpt lat="45.91023" lon="6.50603">
        <ele>2369</ele>
        <time>2024-02-10T11:56:10Z</time>
      </trkpt>
      <trkpt lat="45.91016" lon="6.50613">
        <ele>2369</ele>
        <time>2024-02-10T11:56:24Z</time>
      </trkpt>
      <trkpt lat="45.91019" lon="6.50626">
        <ele>2369</ele>
        <time>2024-02-10T11:56:48Z</time>
      </trkpt>
      <trkpt lat="45.91021" lon="6.50639">
        <ele>2369</ele>
        <time>2024-02-10T11:57:10Z</time>
      </trkpt>
      <trkpt lat="45.91021" lon="6.50653">
        <ele>2369</ele>
        <time>2024-02-10T11:57:35Z</time>
      </trkpt>
      <trkpt lat="45.91015" lon="6.50664">
        <ele>2379</ele>
        <time>2024-02-10T11:59:12Z</time>
      </trkpt>
      <trkpt lat="45.91013" lon="6.50676">
        <ele>2384</ele>
        <time>2024-02-10T11:59:36Z</time>
      </trkpt>
      <trkpt lat="45.91004" lon="6.50678">
        <ele>2389</ele>
        <time>2024-02-10T12:00:31Z</time>
      </trkpt>
      <trkpt lat="45.91002" lon="6.50691">
        <ele>2396</ele>
        <time>2024-02-10T12:01:12Z</time>
      </trkpt>
      <trkpt lat="45.91" lon="6.50703">
        <ele>2396</ele>
        <time>2024-02-10T12:01:46Z</time>
      </trkpt>
      <trkpt lat="45.9099" lon="6.50704">
        <ele>2400</ele>
        <time>2024-02-10T12:02:47Z</time>
      </trkpt>
      <trkpt lat="45.90982" lon="6.50698">
        <ele>2412</ele>
        <time>2024-02-10T12:03:29Z</time>
      </trkpt>
      <trkpt lat="45.90982" lon="6.50711">
        <ele>2412</ele>
        <time>2024-02-10T12:03:56Z</time>
      </trkpt>
      <trkpt lat="45.90976" lon="6.50718">
        <ele>2414</ele>
        <time>2024-02-10T12:04:51Z</time>
      </trkpt>
      <trkpt lat="45.90969" lon="6.50725">
        <ele>2423</ele>
        <time>2024-02-10T12:05:53Z</time>
      </trkpt>
      <trkpt lat="45.90967" lon="6.50738">
        <ele>2423</ele>
        <time>2024-02-10T12:06:12Z</time>
      </trkpt>
      <trkpt lat="45.90973" lon="6.50749">
        <ele>2426</ele>
        <time>2024-02-10T12:06:36Z</time>
      </trkpt>
      <trkpt lat="45.90981" lon="6.50755">
        <ele>2431</ele>
        <time>2024-02-10T12:06:55Z</time>
      </trkpt>
      <trkpt lat="45.90987" lon="6.50765">
        <ele>2433</ele>
        <time>2024-02-10T12:07:21Z</time>
      </trkpt>
      <trkpt lat="45.90983" lon="6.50773">
        <ele>2436</ele>
        <time>2024-02-10T12:14:26Z</time>
      </trkpt>
      <trkpt lat="45.90976" lon="6.5076">
        <ele>2437</ele>
        <time>2024-02-10T12:45:25Z</time>
      </trkpt>
      <trkpt lat="45.90969" lon="6.50748">
        <ele>2435</ele>
        <time>2024-02-10T12:45:28Z</time>
      </trkpt>
      <trkpt lat="45.90969" lon="6.50739">
        <ele>2437</ele>
        <time>2024-02-10T12:45:30Z</time>
      </trkpt>
      <trkpt lat="45.90979" lon="6.50739">
        <ele>2435</ele>
        <time>2024-02-10T12:45:50Z</time>
      </trkpt>
      <trkpt lat="45.90987" lon="6.50728">
        <ele>2428</ele>
        <time>2024-02-10T12:45:54Z</time>
      </trkpt>
      <trkpt lat="45.90983" lon="6.50712">
        <ele>2423</ele>
        <time>2024-02-10T12:45:57Z</time>
      </trkpt>
      <trkpt lat="45.90993" lon="6.50714">
        <ele>2419</ele>
        <time>2024-02-10T12:46:01Z</time>
      </trkpt>
      <trkpt lat="45.91002" lon="6.50706">
        <ele>2410</ele>
        <time>2024-02-10T12:46:07Z</time>
      </trkpt>
      <trkpt lat="45.91004" lon="6.50691">
        <ele>2407</ele>
        <time>2024-02-10T12:46:11Z</time>
      </trkpt>
      <trkpt lat="45.9101" lon="6.50681">
        <ele>2401</ele>
        <time>2024-02-10T12:46:16Z</time>
      </trkpt>
      <trkpt lat="45.91005" lon="6.50666">
        <ele>2398</ele>
        <time>2024-02-10T12:46:19Z</time>
      </trkpt>
      <trkpt lat="45.91015" lon="6.50666">
        <ele>2394</ele>
        <time>2024-02-10T12:46:27Z</time>
      </trkpt>
      <trkpt lat="45.91021" lon="6.50676">
        <ele>2391</ele>
        <time>2024-02-10T12:46:49Z</time>
      </trkpt>
      <trkpt lat="45.91024" lon="6.50661">
        <ele>2387</ele>
        <time>2024-02-10T12:47:00Z</time>
      </trkpt>
      <trkpt lat="45.9102" lon="6.50647">
        <ele>2385</ele>
        <time>2024-02-10T12:47:03Z</time>
      </trkpt>
      <trkpt lat="45.91017" lon="6.50629">
        <ele>2383</ele>
        <time>2024-02-10T12:47:06Z</time>
      </trkpt>
      <trkpt lat="45.91018" lon="6.50612">
        <ele>2381</ele>
        <time>2024-02-10T12:47:09Z</time>
      </trkpt>
      <trkpt lat="45.91025" lon="6.50605">
        <ele>2378</ele>
        <time>2024-02-10T12:47:13Z</time>
      </trkpt>
      <trkpt lat="45.91036" lon="6.50605">
        <ele>2370</ele>
        <time>2024-02-10T12:47:17Z</time>
      </trkpt>
      <trkpt lat="45.91045" lon="6.5061">
        <ele>2365</ele>
        <time>2024-02-10T12:47:22Z</time>
      </trkpt>
      <trkpt lat="45.91051" lon="6.50597">
        <ele>2363</ele>
        <time>2024-02-10T12:47:27Z</time>
      </trkpt>
      <trkpt lat="45.91057" lon="6.50611">
        <ele>2357</ele>
        <time>2024-02-10T12:47:30Z</time>
      </trkpt>
      <trkpt lat="45.9106" lon="6.50623">
        <ele>2355</ele>
        <time>2024-02-10T12:47:35Z</time>
      </trkpt>
      <trkpt lat="45.91063" lon="6.50636">
        <ele>2350</ele>
        <time>2024-02-10T12:47:40Z</time>
      </trkpt>
      <trkpt lat="45.91071" lon="6.50649">
        <ele>2345</ele>
        <time>2024-02-10T12:47:44Z</time>
      </trkpt>
      <trkpt lat="45.91076" lon="6.50635">
        <ele>2342</ele>
        <time>2024-02-10T12:47:49Z</time>
      </trkpt>
      <trkpt lat="45.91082" lon="6.50645">
        <ele>2338</ele>
        <time>2024-02-10T12:47:54Z</time>
      </trkpt>
      <trkpt lat="45.91088" lon="6.50635">
        <ele>2332</ele>
        <time>2024-02-10T12:48:10Z</time>
      </trkpt>
      <trkpt lat="45.91097" lon="6.50631">
        <ele>2330</ele>
        <time>2024-02-10T12:48:13Z</time>
      </trkpt>
      <trkpt lat="45.91106" lon="6.50627">
        <ele>2325</ele>
        <time>2024-02-10T12:48:16Z</time>
      </trkpt>
      <trkpt lat="45.91117" lon="6.5062">
        <ele>2320</ele>
        <time>2024-02-10T12:48:20Z</time>
      </trkpt>
      <trkpt lat="45.91121" lon="6.50604">
        <ele>2314</ele>
        <time>2024-02-10T12:48:23Z</time>
      </trkpt>
      <trkpt lat="45.9113" lon="6.50607">
        <ele>2311</ele>
        <time>2024-02-10T12:48:27Z</time>
      </trkpt>
      <trkpt lat="45.9113" lon="6.50594">
        <ele>2307</ele>
        <time>2024-02-10T12:48:44Z</time>
      </trkpt>
      <trkpt lat="45.91126" lon="6.5058">
        <ele>2301</ele>
        <time>2024-02-10T12:48:47Z</time>
      </trkpt>
      <trkpt lat="45.91136" lon="6.50578">
        <ele>2299</ele>
        <time>2024-02-10T12:48:49Z</time>
      </trkpt>
      <trkpt lat="45.91141" lon="6.50567">
        <ele>2293</ele>
        <time>2024-02-10T12:48:52Z</time>
      </trkpt>
      <trkpt lat="45.91148" lon="6.50574">
        <ele>2290</ele>
        <time>2024-02-10T12:48:54Z</time>
      </trkpt>
      <trkpt lat="45.9116" lon="6.50573">
        <ele>2284</ele>
        <time>2024-02-10T12:48:58Z</time>
      </trkpt>
      <trkpt lat="45.9117" lon="6.50578">
        <ele>2281</ele>
        <time>2024-02-10T12:49:24Z</time>
      </trkpt>
      <trkpt lat="45.91176" lon="6.50565">
        <ele>2280</ele>
        <time>2024-02-10T12:49:27Z</time>
      </trkpt>
      <trkpt lat="45.91186" lon="6.50558">
        <ele>2272</ele>
        <time>2024-02-10T12:49:30Z</time>
      </trkpt>
      <trkpt lat="45.91195" lon="6.50549">
        <ele>2265</ele>
        <time>2024-02-10T12:49:33Z</time>
      </trkpt>
      <trkpt lat="45.91196" lon="6.50535">
        <ele>2260</ele>
        <time>2024-02-10T12:49:36Z</time>
      </trkpt>
      <trkpt lat="45.91205" lon="6.5054">
        <ele>2257</ele>
        <time>2024-02-10T12:49:39Z</time>
      </trkpt>
      <trkpt lat="45.91214" lon="6.50531">
        <ele>2247</ele>
        <time>2024-02-10T12:49:43Z</time>
      </trkpt>
      <trkpt lat="45.9122" lon="6.50515">
        <ele>2242</ele>
        <time>2024-02-10T12:49:47Z</time>
      </trkpt>
      <trkpt lat="45.91228" lon="6.50509">
        <ele>2233</ele>
        <time>2024-02-10T12:50:05Z</time>
      </trkpt>
      <trkpt lat="45.91226" lon="6.50492">
        <ele>2233</ele>
        <time>2024-02-10T12:50:08Z</time>
      </trkpt>
      <trkpt lat="45.91233" lon="6.50482">
        <ele>2226</ele>
        <time>2024-02-10T12:50:10Z</time>
      </trkpt>
      <trkpt lat="45.91239" lon="6.5048">
        <ele>2222</ele>
        <time>2024-02-10T12:50:15Z</time>
      </trkpt>
      <trkpt lat="45.91233" lon="6.50465">
        <ele>2221</ele>
        <time>2024-02-10T12:50:18Z</time>
      </trkpt>
      <trkpt lat="45.91224" lon="6.50438">
        <ele>2216</ele>
        <time>2024-02-10T12:50:23Z</time>
      </trkpt>
      <trkpt lat="45.91215" lon="6.50391">
        <ele>2211</ele>
        <time>2024-02-10T12:50:32Z</time>
      </trkpt>
      <trkpt lat="45.91218" lon="6.50377">
        <ele>2210</ele>
        <time>2024-02-10T12:50:35Z</time>
      </trkpt>
      <trkpt lat="45.91228" lon="6.5037">
        <ele>2208</ele>
        <time>2024-02-10T12:50:38Z</time>
      </trkpt>
      <trkpt lat="45.91238" lon="6.50374">
        <ele>2205</ele>
        <time>2024-02-10T12:50:40Z</time>
      </trkpt>
      <trkpt lat="45.91247" lon="6.50368">
        <ele>2203</ele>
        <time>2024-02-10T12:50:42Z</time>
      </trkpt>
      <trkpt lat="45.91256" lon="6.50356">
        <ele>2196</ele>
        <time>2024-02-10T12:50:46Z</time>
      </trkpt>
      <trkpt lat="45.91264" lon="6.50349">
        <ele>2193</ele>
        <time>2024-02-10T12:50:49Z</time>
      </trkpt>
      <trkpt lat="45.91276" lon="6.50355">
        <ele>2183</ele>
        <time>2024-02-10T12:50:53Z</time>
      </trkpt>
      <trkpt lat="45.9128" lon="6.50368">
        <ele>2179</ele>
        <time>2024-02-10T12:50:55Z</time>
      </trkpt>
      <trkpt lat="45.91287" lon="6.5036">
        <ele>2174</ele>
        <time>2024-02-10T12:51:41Z</time>
      </trkpt>
      <trkpt lat="45.91291" lon="6.50346">
        <ele>2174</ele>
        <time>2024-02-10T12:51:44Z</time>
      </trkpt>
      <trkpt lat="45.91304" lon="6.50336">
        <ele>2160</ele>
        <time>2024-02-10T12:51:48Z</time>
      </trkpt>
      <trkpt lat="45.91312" lon="6.50326">
        <ele>2153</ele>
        <time>2024-02-10T12:51:50Z</time>
      </trkpt>
      <trkpt lat="45.9132" lon="6.50318">
        <ele>2150</ele>
        <time>2024-02-10T12:51:52Z</time>
      </trkpt>
      <trkpt lat="45.91325" lon="6.50307">
        <ele>2145</ele>
        <time>2024-02-10T12:51:54Z</time>
      </trkpt>
      <trkpt lat="45.91333" lon="6.50301">
        <ele>2143</ele>
        <time>2024-02-10T12:51:56Z</time>
      </trkpt>
      <trkpt lat="45.91344" lon="6.503">
        <ele>2137</ele>
        <time>2024-02-10T12:51:59Z</time>
      </trkpt>
      <trkpt lat="45.91349" lon="6.50315">
        <ele>2134</ele>
        <time>2024-02-10T12:52:02Z</time>
      </trkpt>
      <trkpt lat="45.91355" lon="6.50326">
        <ele>2131</ele>
        <time>2024-02-10T12:52:04Z</time>
      </trkpt>
      <trkpt lat="45.91359" lon="6.50343">
        <ele>2130</ele>
        <time>2024-02-10T12:52:07Z</time>
      </trkpt>
      <trkpt lat="45.9137" lon="6.50336">
        <ele>2126</ele>
        <time>2024-02-10T12:52:15Z</time>
      </trkpt>
      <trkpt lat="45.91379" lon="6.50348">
        <ele>2122</ele>
        <time>2024-02-10T12:52:18Z</time>
      </trkpt>
      <trkpt lat="45.91383" lon="6.5036">
        <ele>2120</ele>
        <time>2024-02-10T12:52:22Z</time>
      </trkpt>
      <trkpt lat="45.91391" lon="6.50371">
        <ele>2117</ele>
        <time>2024-02-10T12:52:35Z</time>
      </trkpt>
      <trkpt lat="45.91398" lon="6.50359">
        <ele>2114</ele>
        <time>2024-02-10T12:52:38Z</time>
      </trkpt>
      <trkpt lat="45.91407" lon="6.50369">
        <ele>2113</ele>
        <time>2024-02-10T12:52:40Z</time>
      </trkpt>
      <trkpt lat="45.91416" lon="6.5038">
        <ele>2109</ele>
        <time>2024-02-10T12:52:42Z</time>
      </trkpt>
      <trkpt lat="45.91434" lon="6.50396">
        <ele>2104</ele>
        <time>2024-02-10T12:52:46Z</time>
      </trkpt>
      <trkpt lat="45.91442" lon="6.50402">
        <ele>2101</ele>
        <time>2024-02-10T12:52:56Z</time>
      </trkpt>
      <trkpt lat="45.91453" lon="6.50403">
        <ele>2100</ele>
        <time>2024-02-10T12:52:58Z</time>
      </trkpt>
      <trkpt lat="45.91479" lon="6.50405">
        <ele>2095</ele>
        <time>2024-02-10T12:53:02Z</time>
      </trkpt>
      <trkpt lat="45.91524" lon="6.504">
        <ele>2087</ele>
        <time>2024-02-10T12:53:11Z</time>
      </trkpt>
      <trkpt lat="45.91533" lon="6.504">
        <ele>2085</ele>
        <time>2024-02-10T12:53:14Z</time>
      </trkpt>
      <trkpt lat="45.91543" lon="6.50394">
        <ele>2082</ele>
        <time>2024-02-10T12:53:17Z</time>
      </trkpt>
      <trkpt lat="45.91542" lon="6.50375">
        <ele>2080</ele>
        <time>2024-02-10T12:53:20Z</time>
      </trkpt>
      <trkpt lat="45.91551" lon="6.50372">
        <ele>2078</ele>
        <time>2024-02-10T12:53:22Z</time>
      </trkpt>
      <trkpt lat="45.9156" lon="6.50374">
        <ele>2075</ele>
        <time>2024-02-10T12:53:26Z</time>
      </trkpt>
      <trkpt lat="45.91567" lon="6.50363">
        <ele>2073</ele>
        <time>2024-02-10T12:53:55Z</time>
      </trkpt>
      <trkpt lat="45.91577" lon="6.50356">
        <ele>2072</ele>
        <time>2024-02-10T12:53:59Z</time>
      </trkpt>
      <trkpt lat="45.91587" lon="6.50354">
        <ele>2070</ele>
        <time>2024-02-10T12:54:02Z</time>
      </trkpt>
      <trkpt lat="45.91594" lon="6.50344">
        <ele>2068</ele>
        <time>2024-02-10T12:54:04Z</time>
      </trkpt>
      <trkpt lat="45.91604" lon="6.50347">
        <ele>2066</ele>
        <time>2024-02-10T12:54:07Z</time>
      </trkpt>
      <trkpt lat="45.91615" lon="6.50345">
        <ele>2064</ele>
        <time>2024-02-10T12:54:10Z</time>
      </trkpt>
      <trkpt lat="45.91627" lon="6.50339">
        <ele>2063</ele>
        <time>2024-02-10T12:54:13Z</time>
      </trkpt>
      <trkpt lat="45.91635" lon="6.50351">
        <ele>2060</ele>
        <time>2024-02-10T12:54:16Z</time>
      </trkpt>
      <trkpt lat="45.91646" lon="6.50353">
        <ele>2059</ele>
        <time>2024-02-10T12:54:18Z</time>
      </trkpt>
      <trkpt lat="45.91648" lon="6.50337">
        <ele>2056</ele>
        <time>2024-02-10T12:54:21Z</time>
      </trkpt>
      <trkpt lat="45.91655" lon="6.50325">
        <ele>2054</ele>
        <time>2024-02-10T12:54:24Z</time>
      </trkpt>
      <trkpt lat="45.91657" lon="6.50312">
        <ele>2050</ele>
        <time>2024-02-10T12:54:26Z</time>
      </trkpt>
      <trkpt lat="45.9167" lon="6.50309">
        <ele>2048</ele>
        <time>2024-02-10T12:54:28Z</time>
      </trkpt>
      <trkpt lat="45.91677" lon="6.50317">
        <ele>2042</ele>
        <time>2024-02-10T12:54:35Z</time>
      </trkpt>
      <trkpt lat="45.91679" lon="6.50301">
        <ele>2039</ele>
        <time>2024-02-10T12:54:47Z</time>
      </trkpt>
      <trkpt lat="45.91666" lon="6.50278">
        <ele>2035</ele>
        <time>2024-02-10T12:55:06Z</time>
      </trkpt>
      <trkpt lat="45.91658" lon="6.50266">
        <ele>2032</ele>
        <time>2024-02-10T12:55:09Z</time>
      </trkpt>
      <trkpt lat="45.91668" lon="6.50265">
        <ele>2028</ele>
        <time>2024-02-10T12:55:22Z</time>
      </trkpt>
      <trkpt lat="45.91678" lon="6.50252">
        <ele>2019</ele>
        <time>2024-02-10T12:55:30Z</time>
      </trkpt>
      <trkpt lat="45.91675" lon="6.50239">
        <ele>2013</ele>
        <time>2024-02-10T12:55:34Z</time>
      </trkpt>
      <trkpt lat="45.91674" lon="6.50225">
        <ele>2011</ele>
        <time>2024-02-10T12:55:50Z</time>
      </trkpt>
      <trkpt lat="45.9167" lon="6.5021">
        <ele>2011</ele>
        <time>2024-02-10T12:55:56Z</time>
      </trkpt>
      <trkpt lat="45.91663" lon="6.502">
        <ele>2008</ele>
        <time>2024-02-10T12:55:59Z</time>
      </trkpt>
      <trkpt lat="45.9166" lon="6.50185">
        <ele>2007</ele>
        <time>2024-02-10T12:56:11Z</time>
      </trkpt>
      <trkpt lat="45.91657" lon="6.5017">
        <ele>2004</ele>
        <time>2024-02-10T12:56:15Z</time>
      </trkpt>
      <trkpt lat="45.91668" lon="6.50177">
        <ele>2002</ele>
        <time>2024-02-10T12:56:19Z</time>
      </trkpt>
      <trkpt lat="45.91676" lon="6.50164">
        <ele>1995</ele>
        <time>2024-02-10T12:56:23Z</time>
      </trkpt>
      <trkpt lat="45.91682" lon="6.50153">
        <ele>1991</ele>
        <time>2024-02-10T12:56:26Z</time>
      </trkpt>
      <trkpt lat="45.91683" lon="6.50138">
        <ele>1982</ele>
        <time>2024-02-10T12:56:43Z</time>
      </trkpt>
      <trkpt lat="45.91694" lon="6.50135">
        <ele>1979</ele>
        <time>2024-02-10T12:56:47Z</time>
      </trkpt>
      <trkpt lat="45.91691" lon="6.50122">
        <ele>1978</ele>
        <time>2024-02-10T12:56:50Z</time>
      </trkpt>
      <trkpt lat="45.917" lon="6.50125">
        <ele>1972</ele>
        <time>2024-02-10T12:56:53Z</time>
      </trkpt>
      <trkpt lat="45.91702" lon="6.5011">
        <ele>1968</ele>
        <time>2024-02-10T12:57:13Z</time>
      </trkpt>
      <trkpt lat="45.91711" lon="6.50107">
        <ele>1967</ele>
        <time>2024-02-10T12:57:18Z</time>
      </trkpt>
      <trkpt lat="45.91715" lon="6.50092">
        <ele>1957</ele>
        <time>2024-02-10T12:57:34Z</time>
      </trkpt>
      <trkpt lat="45.91725" lon="6.50088">
        <ele>1951</ele>
        <time>2024-02-10T12:57:58Z</time>
      </trkpt>
      <trkpt lat="45.91733" lon="6.50099">
        <ele>1947</ele>
        <time>2024-02-10T12:58:01Z</time>
      </trkpt>
      <trkpt lat="45.9174" lon="6.5011">
        <ele>1945</ele>
        <time>2024-02-10T12:58:03Z</time>
      </trkpt>
      <trkpt lat="45.91748" lon="6.50123">
        <ele>1943</ele>
        <time>2024-02-10T12:58:06Z</time>
      </trkpt>
      <trkpt lat="45.91757" lon="6.5013">
        <ele>1941</ele>
        <time>2024-02-10T12:58:10Z</time>
      </trkpt>
      <trkpt lat="45.9176" lon="6.50116">
        <ele>1939</ele>
        <time>2024-02-10T12:58:14Z</time>
      </trkpt>
      <trkpt lat="45.91755" lon="6.50105">
        <ele>1938</ele>
        <time>2024-02-10T12:58:17Z</time>
      </trkpt>
      <trkpt lat="45.91755" lon="6.50092">
        <ele>1934</ele>
        <time>2024-02-10T12:58:20Z</time>
      </trkpt>
      <trkpt lat="45.91765" lon="6.50099">
        <ele>1932</ele>
        <time>2024-02-10T12:58:23Z</time>
      </trkpt>
      <trkpt lat="45.91763" lon="6.50083">
        <ele>1930</ele>
        <time>2024-02-10T12:58:26Z</time>
      </trkpt>
      <trkpt lat="45.91757" lon="6.50072">
        <ele>1928</ele>
        <time>2024-02-10T12:58:29Z</time>
      </trkpt>
      <trkpt lat="45.91757" lon="6.50057">
        <ele>1923</ele>
        <time>2024-02-10T12:58:51Z</time>
      </trkpt>
      <trkpt lat="45.91753" lon="6.5003">
        <ele>1921</ele>
        <time>2024-02-10T12:58:56Z</time>
      </trkpt>
      <trkpt lat="45.91758" lon="6.50016">
        <ele>1918</ele>
        <time>2024-02-10T12:59:03Z</time>
      </trkpt>
      <trkpt lat="45.91767" lon="6.50005">
        <ele>1911</ele>
        <time>2024-02-10T12:59:09Z</time>
      </trkpt>
      <trkpt lat="45.91773" lon="6.49995">
        <ele>1908</ele>
        <time>2024-02-10T12:59:13Z</time>
      </trkpt>
      <trkpt lat="45.91776" lon="6.49981">
        <ele>1901</ele>
        <time>2024-02-10T12:59:16Z</time>
      </trkpt>
      <trkpt lat="45.91786" lon="6.49978">
        <ele>1895</ele>
        <time>2024-02-10T12:59:36Z</time>
      </trkpt>
      <trkpt lat="45.91791" lon="6.49965">
        <ele>1886</ele>
        <time>2024-02-10T12:59:41Z</time>
      </trkpt>
      <trkpt lat="45.91795" lon="6.4995">
        <ele>1883</ele>
        <time>2024-02-10T12:59:44Z</time>
      </trkpt>
      <trkpt lat="45.91803" lon="6.49941">
        <ele>1875</ele>
        <time>2024-02-10T12:59:47Z</time>
      </trkpt>
      <trkpt lat="45.91809" lon="6.49929">
        <ele>1873</ele>
        <time>2024-02-10T12:59:50Z</time>
      </trkpt>
      <trkpt lat="45.91817" lon="6.49923">
        <ele>1869</ele>
        <time>2024-02-10T12:59:53Z</time>
      </trkpt>
      <trkpt lat="45.91829" lon="6.49922">
        <ele>1867</ele>
        <time>2024-02-10T13:00:02Z</time>
      </trkpt>
      <trkpt lat="45.91836" lon="6.49913">
        <ele>1861</ele>
        <time>2024-02-10T13:00:05Z</time>
      </trkpt>
      <trkpt lat="45.9184" lon="6.49928">
        <ele>1859</ele>
        <time>2024-02-10T13:00:09Z</time>
      </trkpt>
      <trkpt lat="45.91842" lon="6.49941">
        <ele>1856</ele>
        <time>2024-02-10T13:00:11Z</time>
      </trkpt>
      <trkpt lat="45.91846" lon="6.49956">
        <ele>1854</ele>
        <time>2024-02-10T13:00:14Z</time>
      </trkpt>
      <trkpt lat="45.91854" lon="6.49949">
        <ele>1853</ele>
        <time>2024-02-10T13:00:17Z</time>
      </trkpt>
      <trkpt lat="45.91864" lon="6.49956">
        <ele>1847</ele>
        <time>2024-02-10T13:00:20Z</time>
      </trkpt>
      <trkpt lat="45.91873" lon="6.49951">
        <ele>1844</ele>
        <time>2024-02-10T13:00:23Z</time>
      </trkpt>
      <trkpt lat="45.91881" lon="6.49942">
        <ele>1841</ele>
        <time>2024-02-10T13:00:26Z</time>
      </trkpt>
      <trkpt lat="45.91887" lon="6.49929">
        <ele>1838</ele>
        <time>2024-02-10T13:00:28Z</time>
      </trkpt>
      <trkpt lat="45.91897" lon="6.49938">
        <ele>1835</ele>
        <time>2024-02-10T13:00:31Z</time>
      </trkpt>
      <trkpt lat="45.91904" lon="6.49946">
        <ele>1831</ele>
        <time>2024-02-10T13:00:33Z</time>
      </trkpt>
      <trkpt lat="45.91909" lon="6.49932">
        <ele>1828</ele>
        <time>2024-02-10T13:00:35Z</time>
      </trkpt>
      <trkpt lat="45.91918" lon="6.49927">
        <ele>1823</ele>
        <time>2024-02-10T13:00:38Z</time>
      </trkpt>
      <trkpt lat="45.91922" lon="6.49943">
        <ele>1815</ele>
        <time>2024-02-10T13:01:13Z</time>
      </trkpt>
      <trkpt lat="45.91925" lon="6.49956">
        <ele>1811</ele>
        <time>2024-02-10T13:01:15Z</time>
      </trkpt>
      <trkpt lat="45.91928" lon="6.4997">
        <ele>1810</ele>
        <time>2024-02-10T13:01:18Z</time>
      </trkpt>
      <trkpt lat="45.91939" lon="6.49979">
        <ele>1807</ele>
        <time>2024-02-10T13:01:21Z</time>
      </trkpt>
      <trkpt lat="45.91947" lon="6.49991">
        <ele>1802</ele>
        <time>2024-02-10T13:01:24Z</time>
      </trkpt>
      <trkpt lat="45.9195" lon="6.49977">
        <ele>1799</ele>
        <time>2024-02-10T13:01:28Z</time>
      </trkpt>
      <trkpt lat="45.91961" lon="6.49974">
        <ele>1796</ele>
        <time>2024-02-10T13:01:35Z</time>
      </trkpt>
      <trkpt lat="45.91955" lon="6.49947">
        <ele>1790</ele>
        <time>2024-02-10T13:01:44Z</time>
      </trkpt>
      <trkpt lat="45.91966" lon="6.49941">
        <ele>1787</ele>
        <time>2024-02-10T13:01:47Z</time>
      </trkpt>
      <trkpt lat="45.91971" lon="6.49925">
        <ele>1781</ele>
        <time>2024-02-10T13:01:52Z</time>
      </trkpt>
      <trkpt lat="45.91975" lon="6.49908">
        <ele>1776</ele>
        <time>2024-02-10T13:01:56Z</time>
      </trkpt>
      <trkpt lat="45.91972" lon="6.49892">
        <ele>1774</ele>
        <time>2024-02-10T13:01:59Z</time>
      </trkpt>
      <trkpt lat="45.91985" lon="6.49898">
        <ele>1773</ele>
        <time>2024-02-10T13:02:02Z</time>
      </trkpt>
      <trkpt lat="45.91993" lon="6.49888">
        <ele>1766</ele>
        <time>2024-02-10T13:02:13Z</time>
      </trkpt>
      <trkpt lat="45.91997" lon="6.49876">
        <ele>1764</ele>
        <time>2024-02-10T13:02:15Z</time>
      </trkpt>
      <trkpt lat="45.92008" lon="6.49872">
        <ele>1756</ele>
        <time>2024-02-10T13:02:19Z</time>
      </trkpt>
      <trkpt lat="45.92015" lon="6.4986">
        <ele>1753</ele>
        <time>2024-02-10T13:02:22Z</time>
      </trkpt>
      <trkpt lat="45.92024" lon="6.49857">
        <ele>1751</ele>
        <time>2024-02-10T13:02:24Z</time>
      </trkpt>
      <trkpt lat="45.92026" lon="6.49858">
        <ele>1743</ele>
        <time>2024-02-10T13:02:41Z</time>
      </trkpt>
      <trkpt lat="45.92037" lon="6.49867">
        <ele>1738</ele>
        <time>2024-02-10T13:02:45Z</time>
      </trkpt>
      <trkpt lat="45.92045" lon="6.49858">
        <ele>1735</ele>
        <time>2024-02-10T13:02:49Z</time>
      </trkpt>
      <trkpt lat="45.92053" lon="6.49855">
        <ele>1731</ele>
        <time>2024-02-10T13:02:52Z</time>
      </trkpt>
      <trkpt lat="45.92061" lon="6.49845">
        <ele>1729</ele>
        <time>2024-02-10T13:02:54Z</time>
      </trkpt>
      <trkpt lat="45.92071" lon="6.49837">
        <ele>1725</ele>
        <time>2024-02-10T13:02:57Z</time>
      </trkpt>
      <trkpt lat="45.92075" lon="6.49824">
        <ele>1722</ele>
        <time>2024-02-10T13:02:59Z</time>
      </trkpt>
      <trkpt lat="45.92084" lon="6.49814">
        <ele>1716</ele>
        <time>2024-02-10T13:03:02Z</time>
      </trkpt>
      <trkpt lat="45.92094" lon="6.49815">
        <ele>1713</ele>
        <time>2024-02-10T13:03:05Z</time>
      </trkpt>
      <trkpt lat="45.92095" lon="6.49797">
        <ele>1709</ele>
        <time>2024-02-10T13:03:38Z</time>
      </trkpt>
      <trkpt lat="45.92104" lon="6.49798">
        <ele>1705</ele>
        <time>2024-02-10T13:03:41Z</time>
      </trkpt>
      <trkpt lat="45.92115" lon="6.49796">
        <ele>1701</ele>
        <time>2024-02-10T13:03:44Z</time>
      </trkpt>
      <trkpt lat="45.92115" lon="6.49779">
        <ele>1696</ele>
        <time>2024-02-10T13:03:48Z</time>
      </trkpt>
      <trkpt lat="45.92123" lon="6.49767">
        <ele>1692</ele>
        <time>2024-02-10T13:03:51Z</time>
      </trkpt>
      <trkpt lat="45.92134" lon="6.49761">
        <ele>1689</ele>
        <time>2024-02-10T13:03:54Z</time>
      </trkpt>
      <trkpt lat="45.92141" lon="6.49751">
        <ele>1685</ele>
        <time>2024-02-10T13:03:57Z</time>
      </trkpt>
      <trkpt lat="45.92151" lon="6.49743">
        <ele>1682</ele>
        <time>2024-02-10T13:04:01Z</time>
      </trkpt>
      <trkpt lat="45.9216" lon="6.49736">
        <ele>1678</ele>
        <time>2024-02-10T13:04:04Z</time>
      </trkpt>
      <trkpt lat="45.92172" lon="6.49739">
        <ele>1675</ele>
        <time>2024-02-10T13:04:08Z</time>
      </trkpt>
      <trkpt lat="45.92169" lon="6.49725">
        <ele>1672</ele>
        <time>2024-02-10T13:04:11Z</time>
      </trkpt>
      <trkpt lat="45.92169" lon="6.49706">
        <ele>1663</ele>
        <time>2024-02-10T13:04:25Z</time>
      </trkpt>
      <trkpt lat="45.9218" lon="6.49703">
        <ele>1661</ele>
        <time>2024-02-10T13:04:28Z</time>
      </trkpt>
      <trkpt lat="45.92186" lon="6.49692">
        <ele>1656</ele>
        <time>2024-02-10T13:04:31Z</time>
      </trkpt>
      <trkpt lat="45.92196" lon="6.49682">
        <ele>1651</ele>
        <time>2024-02-10T13:04:35Z</time>
      </trkpt>
      <trkpt lat="45.92202" lon="6.49669">
        <ele>1648</ele>
        <time>2024-02-10T13:04:38Z</time>
      </trkpt>
      <trkpt lat="45.92213" lon="6.49678">
        <ele>1642</ele>
        <time>2024-02-10T13:05:53Z</time>
      </trkpt>
      <trkpt lat="45.92224" lon="6.4968">
        <ele>1639</ele>
        <time>2024-02-10T13:05:56Z</time>
      </trkpt>
      <trkpt lat="45.92221" lon="6.49667">
        <ele>1636</ele>
        <time>2024-02-10T13:06:01Z</time>
      </trkpt>
      <trkpt lat="45.9222" lon="6.4965">
        <ele>1631</ele>
        <time>2024-02-10T13:06:05Z</time>
      </trkpt>
      <trkpt lat="45.92227" lon="6.49642">
        <ele>1627</ele>
        <time>2024-02-10T13:06:11Z</time>
      </trkpt>
      <trkpt lat="45.92233" lon="6.49631">
        <ele>1621</ele>
        <time>2024-02-10T13:06:15Z</time>
      </trkpt>
      <trkpt lat="45.92232" lon="6.49617">
        <ele>1618</ele>
        <time>2024-02-10T13:06:19Z</time>
      </trkpt>
      <trkpt lat="45.92239" lon="6.49607">
        <ele>1615</ele>
        <time>2024-02-10T13:06:22Z</time>
      </trkpt>
      <trkpt lat="45.92243" lon="6.49594">
        <ele>1609</ele>
        <time>2024-02-10T13:06:31Z</time>
      </trkpt>
      <trkpt lat="45.92248" lon="6.49581">
        <ele>1602</ele>
        <time>2024-02-10T13:06:35Z</time>
      </trkpt>
      <trkpt lat="45.9225" lon="6.49566">
        <ele>1596</ele>
        <time>2024-02-10T13:06:40Z</time>
      </trkpt>
      <trkpt lat="45.92246" lon="6.49554">
        <ele>1585</ele>
        <time>2024-02-10T13:06:53Z</time>
      </trkpt>
      <trkpt lat="45.92245" lon="6.49537">
        <ele>1583</ele>
        <time>2024-02-10T13:06:57Z</time>
      </trkpt>
      <trkpt lat="45.92245" lon="6.49521">
        <ele>1578</ele>
        <time>2024-02-10T13:07:01Z</time>
      </trkpt>
      <trkpt lat="45.92236" lon="6.49515">
        <ele>1575</ele>
        <time>2024-02-10T13:07:05Z</time>
      </trkpt>
      <trkpt lat="45.92239" lon="6.49499">
        <ele>1568</ele>
        <time>2024-02-10T13:07:19Z</time>
      </trkpt>
      <trkpt lat="45.92236" lon="6.49487">
        <ele>1567</ele>
        <time>2024-02-10T13:07:23Z</time>
      </trkpt>
      <trkpt lat="45.92232" lon="6.49473">
        <ele>1562</ele>
        <time>2024-02-10T13:07:26Z</time>
      </trkpt>
      <trkpt lat="45.9223" lon="6.49459">
        <ele>1556</ele>
        <time>2024-02-10T13:07:32Z</time>
      </trkpt>
      <trkpt lat="45.92224" lon="6.49442">
        <ele>1552</ele>
        <time>2024-02-10T13:07:37Z</time>
      </trkpt>
      <trkpt lat="45.92216" lon="6.49434">
        <ele>1549</ele>
        <time>2024-02-10T13:07:39Z</time>
      </trkpt>
      <trkpt lat="45.92208" lon="6.49424">
        <ele>1546</ele>
        <time>2024-02-10T13:07:43Z</time>
      </trkpt>
      <trkpt lat="45.92191" lon="6.49404">
        <ele>1543</ele>
        <time>2024-02-10T13:07:58Z</time>
      </trkpt>
      <trkpt lat="45.92175" lon="6.49389">
        <ele>1540</ele>
        <time>2024-02-10T13:08:03Z</time>
      </trkpt>
      <trkpt lat="45.92171" lon="6.49376">
        <ele>1538</ele>
        <time>2024-02-10T13:08:06Z</time>
      </trkpt>
      <trkpt lat="45.92181" lon="6.49364">
        <ele>1536</ele>
        <time>2024-02-10T13:08:10Z</time>
      </trkpt>
      <trkpt lat="45.9218" lon="6.49346">
        <ele>1532</ele>
        <time>2024-02-10T13:08:13Z</time>
      </trkpt>
      <trkpt lat="45.92188" lon="6.49333">
        <ele>1531</ele>
        <time>2024-02-10T13:08:15Z</time>
      </trkpt>
      <trkpt lat="45.92189" lon="6.49318">
        <ele>1527</ele>
        <time>2024-02-10T13:08:18Z</time>
      </trkpt>
      <trkpt lat="45.92194" lon="6.49306">
        <ele>1525</ele>
        <time>2024-02-10T13:08:21Z</time>
      </trkpt>
      <trkpt lat="45.922" lon="6.49289">
        <ele>1521</ele>
        <time>2024-02-10T13:08:24Z</time>
      </trkpt>
      <trkpt lat="45.92196" lon="6.49275">
        <ele>1519</ele>
        <time>2024-02-10T13:08:26Z</time>
      </trkpt>
      <trkpt lat="45.92187" lon="6.49264">
        <ele>1513</ele>
        <time>2024-02-10T13:08:51Z</time>
      </trkpt>
      <trkpt lat="45.92189" lon="6.49251">
        <ele>1512</ele>
        <time>2024-02-10T13:08:54Z</time>
      </trkpt>
      <trkpt lat="45.92187" lon="6.49231">
        <ele>1504</ele>
        <time>2024-02-10T13:08:57Z</time>
      </trkpt>
      <trkpt lat="45.92192" lon="6.49216">
        <ele>1499</ele>
        <time>2024-02-10T13:09:00Z</time>
      </trkpt>
      <trkpt lat="45.92197" lon="6.49198">
        <ele>1496</ele>
        <time>2024-02-10T13:09:03Z</time>
      </trkpt>
      <trkpt lat="45.92193" lon="6.49186">
        <ele>1493</ele>
        <time>2024-02-10T13:09:05Z</time>
      </trkpt>
      <trkpt lat="45.92196" lon="6.49168">
        <ele>1490</ele>
        <time>2024-02-10T13:09:08Z</time>
      </trkpt>
      <trkpt lat="45.92197" lon="6.49152">
        <ele>1486</ele>
        <time>2024-02-10T13:09:11Z</time>
      </trkpt>
      <trkpt lat="45.92192" lon="6.49139">
        <ele>1485</ele>
        <time>2024-02-10T13:09:13Z</time>
      </trkpt>
      <trkpt lat="45.92193" lon="6.49123">
        <ele>1481</ele>
        <time>2024-02-10T13:09:15Z</time>
      </trkpt>
      <trkpt lat="45.92187" lon="6.49112">
        <ele>1480</ele>
        <time>2024-02-10T13:09:17Z</time>
      </trkpt>
      <trkpt lat="45.92185" lon="6.49097">
        <ele>1477</ele>
        <time>2024-02-10T13:09:19Z</time>
      </trkpt>
      <trkpt lat="45.92182" lon="6.49078">
        <ele>1475</ele>
        <time>2024-02-10T13:09:21Z</time>
      </trkpt>
      <trkpt lat="45.92177" lon="6.49066">
        <ele>1472</ele>
        <time>2024-02-10T13:09:23Z</time>
      </trkpt>
      <trkpt lat="45.92177" lon="6.49051">
        <ele>1471</ele>
        <time>2024-02-10T13:09:25Z</time>
      </trkpt>
      <trkpt lat="45.92174" lon="6.49039">
        <ele>1468</ele>
        <time>2024-02-10T13:09:27Z</time>
      </trkpt>
      <trkpt lat="45.92175" lon="6.49023">
        <ele>1468</ele>
        <time>2024-02-10T13:09:29Z</time>
      </trkpt>
      <trkpt lat="45.92171" lon="6.4901">
        <ele>1466</ele>
        <time>2024-02-10T13:09:31Z</time>
      </trkpt>
      <trkpt lat="45.92172" lon="6.48996">
        <ele>1464</ele>
        <time>2024-02-10T13:09:33Z</time>
      </trkpt>
      <trkpt lat="45.92166" lon="6.48983">
        <ele>1461</ele>
        <time>2024-02-10T13:09:35Z</time>
      </trkpt>
      <trkpt lat="45.92169" lon="6.48969">
        <ele>1460</ele>
        <time>2024-02-10T13:09:37Z</time>
      </trkpt>
      <trkpt lat="45.92166" lon="6.48937">
        <ele>1457</ele>
        <time>2024-02-10T13:09:41Z</time>
      </trkpt>
      <trkpt lat="45.92165" lon="6.48924">
        <ele>1455</ele>
        <time>2024-02-10T13:09:43Z</time>
      </trkpt>
      <trkpt lat="45.92163" lon="6.4891">
        <ele>1454</ele>
        <time>2024-02-10T13:09:45Z</time>
      </trkpt>
      <trkpt lat="45.92163" lon="6.48893">
        <ele>1452</ele>
        <time>2024-02-10T13:09:47Z</time>
      </trkpt>
      <trkpt lat="45.92165" lon="6.48864">
        <ele>1452</ele>
        <time>2024-02-10T13:09:51Z</time>
      </trkpt>
      <trkpt lat="45.92179" lon="6.48829">
        <ele>1454</ele>
        <time>2024-02-10T13:10:13Z</time>
      </trkpt>
      <trkpt lat="45.92181" lon="6.48816">
        <ele>1457</ele>
        <time>2024-02-10T13:10:29Z</time>
      </trkpt>
      <trkpt lat="45.92176" lon="6.4879">
        <ele>1457</ele>
        <time>2024-02-10T13:10:59Z</time>
      </trkpt>
      <trkpt lat="45.92171" lon="6.48765">
        <ele>1458</ele>
        <time>2024-02-10T13:11:23Z</time>
      </trkpt>
      <trkpt lat="45.92169" lon="6.48751">
        <ele>1459</ele>
        <time>2024-02-10T13:11:40Z</time>
      </trkpt>
      <trkpt lat="45.92164" lon="6.4874">
        <ele>1460</ele>
        <time>2024-02-10T13:11:55Z</time>
      </trkpt>
      <trkpt lat="45.92156" lon="6.48716">
        <ele>1462</ele>
        <time>2024-02-10T13:12:18Z</time>
      </trkpt>
      <trkpt lat="45.92144" lon="6.48697">
        <ele>1463</ele>
        <time>2024-02-10T13:12:44Z</time>
      </trkpt>
      <trkpt lat="45.92137" lon="6.48687">
        <ele>1463</ele>
        <time>2024-02-10T13:12:51Z</time>
      </trkpt>
      <trkpt lat="45.92128" lon="6.4866">
        <ele>1462</ele>
        <time>2024-02-10T13:13:08Z</time>
      </trkpt>
      <trkpt lat="45.92128" lon="6.48643">
        <ele>1464</ele>
        <time>2024-02-10T13:13:11Z</time>
      </trkpt>
      <trkpt lat="45.92152" lon="6.48585">
        <ele>1463</ele>
        <time>2024-02-10T13:13:23Z</time>
      </trkpt>
      <trkpt lat="45.92164" lon="6.48561">
        <ele>1459</ele>
        <time>2024-02-10T13:13:33Z</time>
      </trkpt>
      <trkpt lat="45.92177" lon="6.48532">
        <ele>1455</ele>
        <time>2024-02-10T13:13:37Z</time>
      </trkpt>
      <trkpt lat="45.92181" lon="6.48519">
        <ele>1454</ele>
        <time>2024-02-10T13:13:39Z</time>
      </trkpt>
      <trkpt lat="45.92191" lon="6.48497">
        <ele>1452</ele>
        <time>2024-02-10T13:13:44Z</time>
      </trkpt>
      <trkpt lat="45.92241" lon="6.48436">
        <ele>1447</ele>
        <time>2024-02-10T13:13:57Z</time>
      </trkpt>
      <trkpt lat="45.92249" lon="6.48428">
        <ele>1443</ele>
        <time>2024-02-10T13:19:15Z</time>
      </trkpt>
      <trkpt lat="45.92254" lon="6.48417">
        <ele>1444</ele>
        <time>2024-02-10T13:19:30Z</time>
      </trkpt>
      <trkpt lat="45.92257" lon="6.48404">
        <ele>1444</ele>
        <time>2024-02-10T13:19:44Z</time>
      </trkpt>
      <trkpt lat="45.92263" lon="6.48394">
        <ele>1443</ele>
        <time>2024-02-10T13:30:10Z</time>
      </trkpt>
    </trkseg>
  </trk>
</gpx>